<?xml version="1.0" encoding="UTF-8"?>
<gpx version="1.1" creator="Kurviger" xmlns="http://www.topografix.com/GPX/1/1" xmlns:xsi="http://www.w3.org/2001/XMLSchema-instance" xsi:schemaLocation="http://www.topografix.com/GPX/1/1 http://www.topografix.com/GPX/1/1/gpx.xsd http://www.garmin.com/xmlschemas/GpxExtensions/v3 http://www.garmin.com/xmlschemas/GpxExtensionsv3.xsd http://www.garmin.com/xmlschemas/TripExtensions/v1 http://www.garmin.com/xmlschemas/TripExtensionsv1.xsd" xmlns:gpxx="http://www.garmin.com/xmlschemas/GpxExtensions/v3" xmlns:trp="http://www.garmin.com/xmlschemas/TripExtensions/v1">
	<metadata>
		<name>Sommerfest 2025 - Pollmann, Hamminkeln</name>
		<copyright author="OpenStreetMap contributors"/>
		<link href="https://kurviger.com">
			<text>Kurviger.com GPX</text>
		</link>
		<time>2025-07-19T09:21:39.042Z</time>
	</metadata>
	<trk>
		<name>Sommerfest 2025 - Pollmann, Hamminkeln</name>
		<trkseg>
			<trkpt lat="51.65764" lon="6.90149">
				<ele>41.92</ele>
				<time>2025-07-19T09:21:39.042Z</time>
			</trkpt>
			<trkpt lat="51.65798" lon="6.90179">
				<ele>39.93</ele>
				<time>2025-07-19T09:21:50.946Z</time>
			</trkpt>
			<trkpt lat="51.65723" lon="6.90421">
				<ele>38.95</ele>
				<time>2025-07-19T09:22:08.129Z</time>
			</trkpt>
			<trkpt lat="51.65714" lon="6.90415">
				<ele>39</ele>
				<time>2025-07-19T09:22:08.643Z</time>
			</trkpt>
			<trkpt lat="51.65652" lon="6.9041">
				<ele>42.04</ele>
				<time>2025-07-19T09:22:13.366Z</time>
			</trkpt>
			<trkpt lat="51.6558" lon="6.90424">
				<ele>42.79</ele>
				<time>2025-07-19T09:22:21.791Z</time>
			</trkpt>
			<trkpt lat="51.65538" lon="6.90421">
				<ele>43.75</ele>
				<time>2025-07-19T09:22:27.945Z</time>
			</trkpt>
			<trkpt lat="51.65458" lon="6.90398">
				<ele>42.49</ele>
				<time>2025-07-19T09:22:42.104Z</time>
			</trkpt>
			<trkpt lat="51.65444" lon="6.90398">
				<ele>42</ele>
				<time>2025-07-19T09:22:44.810Z</time>
			</trkpt>
			<trkpt lat="51.65425" lon="6.90403">
				<ele>42.69</ele>
				<time>2025-07-19T09:22:48.644Z</time>
			</trkpt>
			<trkpt lat="51.65349" lon="6.90438">
				<ele>46.77</ele>
				<time>2025-07-19T09:23:05.597Z</time>
			</trkpt>
			<trkpt lat="51.65331" lon="6.90437">
				<ele>46.73</ele>
				<time>2025-07-19T09:23:09.694Z</time>
			</trkpt>
			<trkpt lat="51.65318" lon="6.90433">
				<ele>46.59</ele>
				<time>2025-07-19T09:23:12.750Z</time>
			</trkpt>
			<trkpt lat="51.65311" lon="6.90431">
				<ele>46.52</ele>
				<time>2025-07-19T09:23:14.407Z</time>
			</trkpt>
			<trkpt lat="51.65294" lon="6.9042">
				<ele>46.02</ele>
				<time>2025-07-19T09:23:18.722Z</time>
			</trkpt>
			<trkpt lat="51.65282" lon="6.90408">
				<ele>46</ele>
				<time>2025-07-19T09:23:22.090Z</time>
			</trkpt>
			<trkpt lat="51.65235" lon="6.90335">
				<ele>46.38</ele>
				<time>2025-07-19T09:23:38.024Z</time>
			</trkpt>
			<trkpt lat="51.65209" lon="6.90311">
				<ele>44.76</ele>
				<time>2025-07-19T09:23:45.481Z</time>
			</trkpt>
			<trkpt lat="51.65182" lon="6.903">
				<ele>44</ele>
				<time>2025-07-19T09:23:52.455Z</time>
			</trkpt>
			<trkpt lat="51.65154" lon="6.90293">
				<ele>44.43</ele>
				<time>2025-07-19T09:23:59.565Z</time>
			</trkpt>
			<trkpt lat="51.65054" lon="6.90248">
				<ele>42.9</ele>
				<time>2025-07-19T09:24:25.330Z</time>
			</trkpt>
			<trkpt lat="51.65033" lon="6.9024">
				<ele>41.83</ele>
				<time>2025-07-19T09:24:30.547Z</time>
			</trkpt>
			<trkpt lat="51.65012" lon="6.90238">
				<ele>41.81</ele>
				<time>2025-07-19T09:24:35.563Z</time>
			</trkpt>
			<trkpt lat="51.64954" lon="6.90245">
				<ele>43.81</ele>
				<time>2025-07-19T09:24:48.978Z</time>
			</trkpt>
			<trkpt lat="51.6487" lon="6.90263">
				<ele>44.16</ele>
				<time>2025-07-19T09:25:06.951Z</time>
			</trkpt>
			<trkpt lat="51.64858" lon="6.90264">
				<ele>44.7</ele>
				<time>2025-07-19T09:25:09.314Z</time>
			</trkpt>
			<trkpt lat="51.64846" lon="6.90262">
				<ele>45.59</ele>
				<time>2025-07-19T09:25:11.633Z</time>
			</trkpt>
			<trkpt lat="51.64838" lon="6.90256">
				<ele>46.39</ele>
				<time>2025-07-19T09:25:13.296Z</time>
			</trkpt>
			<trkpt lat="51.64819" lon="6.90235">
				<ele>47.49</ele>
				<time>2025-07-19T09:25:17.492Z</time>
			</trkpt>
			<trkpt lat="51.64803" lon="6.90211">
				<ele>47.81</ele>
				<time>2025-07-19T09:25:21.272Z</time>
			</trkpt>
			<trkpt lat="51.64744" lon="6.90119">
				<ele>48.13</ele>
				<time>2025-07-19T09:25:33.671Z</time>
			</trkpt>
			<trkpt lat="51.64667" lon="6.90023">
				<ele>48.02</ele>
				<time>2025-07-19T09:25:45.078Z</time>
			</trkpt>
			<trkpt lat="51.64612" lon="6.8993">
				<ele>46.04</ele>
				<time>2025-07-19T09:25:52.180Z</time>
			</trkpt>
			<trkpt lat="51.64594" lon="6.89895">
				<ele>46</ele>
				<time>2025-07-19T09:25:54.283Z</time>
			</trkpt>
			<trkpt lat="51.64586" lon="6.89876">
				<ele>46</ele>
				<time>2025-07-19T09:25:55.272Z</time>
			</trkpt>
			<trkpt lat="51.64576" lon="6.8984">
				<ele>46.24</ele>
				<time>2025-07-19T09:25:56.863Z</time>
			</trkpt>
			<trkpt lat="51.6451" lon="6.8957">
				<ele>44.34</ele>
				<time>2025-07-19T09:26:05.353Z</time>
			</trkpt>
			<trkpt lat="51.64531" lon="6.89554">
				<ele>44</ele>
				<time>2025-07-19T09:26:06.158Z</time>
			</trkpt>
			<trkpt lat="51.6454" lon="6.89544">
				<ele>44</ele>
				<time>2025-07-19T09:26:06.522Z</time>
			</trkpt>
			<trkpt lat="51.6458" lon="6.89476">
				<ele>43.16</ele>
				<time>2025-07-19T09:26:08.303Z</time>
			</trkpt>
			<trkpt lat="51.64614" lon="6.89431">
				<ele>44.47</ele>
				<time>2025-07-19T09:26:09.495Z</time>
			</trkpt>
			<trkpt lat="51.64633" lon="6.89413">
				<ele>45</ele>
				<time>2025-07-19T09:26:10.046Z</time>
			</trkpt>
			<trkpt lat="51.64645" lon="6.89406">
				<ele>44.85</ele>
				<time>2025-07-19T09:26:10.353Z</time>
			</trkpt>
			<trkpt lat="51.64661" lon="6.894">
				<ele>44.66</ele>
				<time>2025-07-19T09:26:10.734Z</time>
			</trkpt>
			<trkpt lat="51.64753" lon="6.89388">
				<ele>44.99</ele>
				<time>2025-07-19T09:26:12.641Z</time>
			</trkpt>
			<trkpt lat="51.64785" lon="6.89376">
				<ele>43.98</ele>
				<time>2025-07-19T09:26:13.240Z</time>
			</trkpt>
			<trkpt lat="51.64817" lon="6.89358">
				<ele>42.41</ele>
				<time>2025-07-19T09:26:13.825Z</time>
			</trkpt>
			<trkpt lat="51.64884" lon="6.89306">
				<ele>42.52</ele>
				<time>2025-07-19T09:26:15.025Z</time>
			</trkpt>
			<trkpt lat="51.64898" lon="6.89297">
				<ele>41.89</ele>
				<time>2025-07-19T09:26:15.259Z</time>
			</trkpt>
			<trkpt lat="51.6493" lon="6.89283">
				<ele>41.59</ele>
				<time>2025-07-19T09:26:15.769Z</time>
			</trkpt>
			<trkpt lat="51.64959" lon="6.8928">
				<ele>42.55</ele>
				<time>2025-07-19T09:26:16.215Z</time>
			</trkpt>
			<trkpt lat="51.65282" lon="6.8933">
				<ele>45.2</ele>
				<time>2025-07-19T09:26:22.442Z</time>
			</trkpt>
			<trkpt lat="51.6531" lon="6.89332">
				<ele>46.4</ele>
				<time>2025-07-19T09:26:23.200Z</time>
			</trkpt>
			<trkpt lat="51.65337" lon="6.8933">
				<ele>43.64</ele>
				<time>2025-07-19T09:26:23.981Z</time>
			</trkpt>
			<trkpt lat="51.6536" lon="6.89326">
				<ele>42.27</ele>
				<time>2025-07-19T09:26:24.691Z</time>
			</trkpt>
			<trkpt lat="51.65376" lon="6.89319">
				<ele>42.5</ele>
				<time>2025-07-19T09:26:25.226Z</time>
			</trkpt>
			<trkpt lat="51.65396" lon="6.89305">
				<ele>42.99</ele>
				<time>2025-07-19T09:26:25.961Z</time>
			</trkpt>
			<trkpt lat="51.65419" lon="6.89279">
				<ele>43</ele>
				<time>2025-07-19T09:26:26.968Z</time>
			</trkpt>
			<trkpt lat="51.6543" lon="6.89261">
				<ele>43.57</ele>
				<time>2025-07-19T09:26:27.560Z</time>
			</trkpt>
			<trkpt lat="51.65526" lon="6.89051">
				<ele>48.08</ele>
				<time>2025-07-19T09:26:35.104Z</time>
			</trkpt>
			<trkpt lat="51.6555" lon="6.89009">
				<ele>48.82</ele>
				<time>2025-07-19T09:26:37.149Z</time>
			</trkpt>
			<trkpt lat="51.65581" lon="6.88965">
				<ele>48.27</ele>
				<time>2025-07-19T09:26:39.735Z</time>
			</trkpt>
			<trkpt lat="51.65628" lon="6.88913">
				<ele>48</ele>
				<time>2025-07-19T09:26:43.681Z</time>
			</trkpt>
			<trkpt lat="51.65664" lon="6.8888">
				<ele>47.7</ele>
				<time>2025-07-19T09:26:46.840Z</time>
			</trkpt>
			<trkpt lat="51.65849" lon="6.88747">
				<ele>47.4</ele>
				<time>2025-07-19T09:27:06.280Z</time>
			</trkpt>
			<trkpt lat="51.65876" lon="6.88723">
				<ele>47</ele>
				<time>2025-07-19T09:27:09.879Z</time>
			</trkpt>
			<trkpt lat="51.65913" lon="6.88679">
				<ele>46.33</ele>
				<time>2025-07-19T09:27:15.588Z</time>
			</trkpt>
			<trkpt lat="51.65938" lon="6.88653">
				<ele>45.44</ele>
				<time>2025-07-19T09:27:19.509Z</time>
			</trkpt>
			<trkpt lat="51.65971" lon="6.88628">
				<ele>45.61</ele>
				<time>2025-07-19T09:27:24.566Z</time>
			</trkpt>
			<trkpt lat="51.66117" lon="6.8854">
				<ele>43.46</ele>
				<time>2025-07-19T09:27:49.492Z</time>
			</trkpt>
			<trkpt lat="51.66141" lon="6.8853">
				<ele>43.18</ele>
				<time>2025-07-19T09:27:53.980Z</time>
			</trkpt>
			<trkpt lat="51.66159" lon="6.88529">
				<ele>43.81</ele>
				<time>2025-07-19T09:27:57.335Z</time>
			</trkpt>
			<trkpt lat="51.66186" lon="6.88536">
				<ele>45.54</ele>
				<time>2025-07-19T09:28:02.585Z</time>
			</trkpt>
			<trkpt lat="51.66197" lon="6.88541">
				<ele>46.06</ele>
				<time>2025-07-19T09:28:04.835Z</time>
			</trkpt>
			<trkpt lat="51.66205" lon="6.8851">
				<ele>46.4</ele>
				<time>2025-07-19T09:28:09.021Z</time>
			</trkpt>
			<trkpt lat="51.6621" lon="6.8848">
				<ele>47.29</ele>
				<time>2025-07-19T09:28:12.990Z</time>
			</trkpt>
			<trkpt lat="51.66282" lon="6.88362">
				<ele>45.88</ele>
				<time>2025-07-19T09:28:35.546Z</time>
			</trkpt>
			<trkpt lat="51.66317" lon="6.88308">
				<ele>42.68</ele>
				<time>2025-07-19T09:28:46.914Z</time>
			</trkpt>
			<trkpt lat="51.66351" lon="6.88245">
				<ele>42.66</ele>
				<time>2025-07-19T09:28:59.501Z</time>
			</trkpt>
			<trkpt lat="51.66382" lon="6.88178">
				<ele>43</ele>
				<time>2025-07-19T09:29:12.481Z</time>
			</trkpt>
			<trkpt lat="51.66392" lon="6.88141">
				<ele>42.89</ele>
				<time>2025-07-19T09:29:18.866Z</time>
			</trkpt>
			<trkpt lat="51.66403" lon="6.88074">
				<ele>42.36</ele>
				<time>2025-07-19T09:29:29.980Z</time>
			</trkpt>
			<trkpt lat="51.6641" lon="6.8805">
				<ele>42.34</ele>
				<time>2025-07-19T09:29:34.276Z</time>
			</trkpt>
			<trkpt lat="51.66482" lon="6.87886">
				<ele>38.83</ele>
				<time>2025-07-19T09:30:07.358Z</time>
			</trkpt>
			<trkpt lat="51.66498" lon="6.87844">
				<ele>37.34</ele>
				<time>2025-07-19T09:30:15.553Z</time>
			</trkpt>
			<trkpt lat="51.66503" lon="6.87804">
				<ele>36.28</ele>
				<time>2025-07-19T09:30:22.340Z</time>
			</trkpt>
			<trkpt lat="51.665" lon="6.87664">
				<ele>38.84</ele>
				<time>2025-07-19T09:30:45.552Z</time>
			</trkpt>
			<trkpt lat="51.66503" lon="6.87629">
				<ele>37.44</ele>
				<time>2025-07-19T09:30:51.361Z</time>
			</trkpt>
			<trkpt lat="51.66512" lon="6.87586">
				<ele>35.18</ele>
				<time>2025-07-19T09:30:58.778Z</time>
			</trkpt>
			<trkpt lat="51.66533" lon="6.87479">
				<ele>33</ele>
				<time>2025-07-19T09:31:16.851Z</time>
			</trkpt>
			<trkpt lat="51.66556" lon="6.87377">
				<ele>33</ele>
				<time>2025-07-19T09:31:33.841Z</time>
			</trkpt>
			<trkpt lat="51.66561" lon="6.87362">
				<ele>33</ele>
				<time>2025-07-19T09:31:36.453Z</time>
			</trkpt>
			<trkpt lat="51.66565" lon="6.87356">
				<ele>33</ele>
				<time>2025-07-19T09:31:37.799Z</time>
			</trkpt>
			<trkpt lat="51.66573" lon="6.87343">
				<ele>33</ele>
				<time>2025-07-19T09:31:40.581Z</time>
			</trkpt>
			<trkpt lat="51.6658" lon="6.87338">
				<ele>33</ele>
				<time>2025-07-19T09:31:42.446Z</time>
			</trkpt>
			<trkpt lat="51.66669" lon="6.87318">
				<ele>34.41</ele>
				<time>2025-07-19T09:32:03.713Z</time>
			</trkpt>
			<trkpt lat="51.66686" lon="6.87312">
				<ele>34.03</ele>
				<time>2025-07-19T09:32:07.702Z</time>
			</trkpt>
			<trkpt lat="51.66701" lon="6.87302">
				<ele>34.24</ele>
				<time>2025-07-19T09:32:11.385Z</time>
			</trkpt>
			<trkpt lat="51.66709" lon="6.87289">
				<ele>34.52</ele>
				<time>2025-07-19T09:32:13.941Z</time>
			</trkpt>
			<trkpt lat="51.66715" lon="6.87263">
				<ele>34.22</ele>
				<time>2025-07-19T09:32:17.780Z</time>
			</trkpt>
			<trkpt lat="51.66716" lon="6.87167">
				<ele>33.6</ele>
				<time>2025-07-19T09:32:30.769Z</time>
			</trkpt>
			<trkpt lat="51.66719" lon="6.87058">
				<ele>36.88</ele>
				<time>2025-07-19T09:32:44.983Z</time>
			</trkpt>
			<trkpt lat="51.66721" lon="6.87045">
				<ele>37.34</ele>
				<time>2025-07-19T09:32:46.689Z</time>
			</trkpt>
			<trkpt lat="51.66726" lon="6.8703">
				<ele>37.63</ele>
				<time>2025-07-19T09:32:48.846Z</time>
			</trkpt>
			<trkpt lat="51.66735" lon="6.87015">
				<ele>37.05</ele>
				<time>2025-07-19T09:32:51.472Z</time>
			</trkpt>
			<trkpt lat="51.66745" lon="6.87006">
				<ele>36.31</ele>
				<time>2025-07-19T09:32:53.778Z</time>
			</trkpt>
			<trkpt lat="51.66828" lon="6.86976">
				<ele>34.01</ele>
				<time>2025-07-19T09:33:10.431Z</time>
			</trkpt>
			<trkpt lat="51.66836" lon="6.86969">
				<ele>33.89</ele>
				<time>2025-07-19T09:33:12.164Z</time>
			</trkpt>
			<trkpt lat="51.66845" lon="6.86957">
				<ele>33.78</ele>
				<time>2025-07-19T09:33:14.375Z</time>
			</trkpt>
			<trkpt lat="51.66852" lon="6.86941">
				<ele>34.1</ele>
				<time>2025-07-19T09:33:16.658Z</time>
			</trkpt>
			<trkpt lat="51.66949" lon="6.86623">
				<ele>33.83</ele>
				<time>2025-07-19T09:33:55.378Z</time>
			</trkpt>
			<trkpt lat="51.6698" lon="6.86399">
				<ele>35</ele>
				<time>2025-07-19T09:34:18.087Z</time>
			</trkpt>
			<trkpt lat="51.66982" lon="6.86354">
				<ele>36.23</ele>
				<time>2025-07-19T09:34:22.358Z</time>
			</trkpt>
			<trkpt lat="51.66977" lon="6.86312">
				<ele>37.74</ele>
				<time>2025-07-19T09:34:26.352Z</time>
			</trkpt>
			<trkpt lat="51.66951" lon="6.8621">
				<ele>36.88</ele>
				<time>2025-07-19T09:34:36.418Z</time>
			</trkpt>
			<trkpt lat="51.6695" lon="6.86184">
				<ele>36.77</ele>
				<time>2025-07-19T09:34:38.749Z</time>
			</trkpt>
			<trkpt lat="51.66956" lon="6.86152">
				<ele>36.79</ele>
				<time>2025-07-19T09:34:41.714Z</time>
			</trkpt>
			<trkpt lat="51.66964" lon="6.86135">
				<ele>37.08</ele>
				<time>2025-07-19T09:34:43.593Z</time>
			</trkpt>
			<trkpt lat="51.66977" lon="6.86121">
				<ele>37.76</ele>
				<time>2025-07-19T09:34:45.798Z</time>
			</trkpt>
			<trkpt lat="51.66987" lon="6.86116">
				<ele>38.23</ele>
				<time>2025-07-19T09:34:47.266Z</time>
			</trkpt>
			<trkpt lat="51.67017" lon="6.86125">
				<ele>37.97</ele>
				<time>2025-07-19T09:34:51.507Z</time>
			</trkpt>
			<trkpt lat="51.67037" lon="6.86129">
				<ele>37.66</ele>
				<time>2025-07-19T09:34:54.277Z</time>
			</trkpt>
			<trkpt lat="51.67046" lon="6.86126">
				<ele>37.86</ele>
				<time>2025-07-19T09:34:55.533Z</time>
			</trkpt>
			<trkpt lat="51.67056" lon="6.86118">
				<ele>38.4</ele>
				<time>2025-07-19T09:34:57.052Z</time>
			</trkpt>
			<trkpt lat="51.67063" lon="6.86109">
				<ele>38.45</ele>
				<time>2025-07-19T09:34:58.266Z</time>
			</trkpt>
			<trkpt lat="51.67075" lon="6.86085">
				<ele>38.5</ele>
				<time>2025-07-19T09:35:00.842Z</time>
			</trkpt>
			<trkpt lat="51.67104" lon="6.86034">
				<ele>36.28</ele>
				<time>2025-07-19T09:35:06.556Z</time>
			</trkpt>
			<trkpt lat="51.67132" lon="6.85998">
				<ele>34.5</ele>
				<time>2025-07-19T09:35:11.254Z</time>
			</trkpt>
			<trkpt lat="51.67141" lon="6.85991">
				<ele>34.12</ele>
				<time>2025-07-19T09:35:12.554Z</time>
			</trkpt>
			<trkpt lat="51.67154" lon="6.85986">
				<ele>33.37</ele>
				<time>2025-07-19T09:35:14.286Z</time>
			</trkpt>
			<trkpt lat="51.67164" lon="6.85985">
				<ele>32.68</ele>
				<time>2025-07-19T09:35:15.579Z</time>
			</trkpt>
			<trkpt lat="51.67304" lon="6.86046">
				<ele>31.64</ele>
				<time>2025-07-19T09:35:33.851Z</time>
			</trkpt>
			<trkpt lat="51.67344" lon="6.86057">
				<ele>29.52</ele>
				<time>2025-07-19T09:35:38.834Z</time>
			</trkpt>
			<trkpt lat="51.67375" lon="6.86061">
				<ele>28.77</ele>
				<time>2025-07-19T09:35:42.622Z</time>
			</trkpt>
			<trkpt lat="51.67444" lon="6.86058">
				<ele>28.86</ele>
				<time>2025-07-19T09:35:50.945Z</time>
			</trkpt>
			<trkpt lat="51.67543" lon="6.86043">
				<ele>31.03</ele>
				<time>2025-07-19T09:36:02.779Z</time>
			</trkpt>
			<trkpt lat="51.67602" lon="6.86041">
				<ele>31.18</ele>
				<time>2025-07-19T09:36:09.743Z</time>
			</trkpt>
			<trkpt lat="51.67633" lon="6.86045">
				<ele>30.3</ele>
				<time>2025-07-19T09:36:13.404Z</time>
			</trkpt>
			<trkpt lat="51.67663" lon="6.86056">
				<ele>29.1</ele>
				<time>2025-07-19T09:36:17.021Z</time>
			</trkpt>
			<trkpt lat="51.67681" lon="6.86065">
				<ele>29</ele>
				<time>2025-07-19T09:36:19.236Z</time>
			</trkpt>
			<trkpt lat="51.6772" lon="6.8609">
				<ele>31.75</ele>
				<time>2025-07-19T09:36:24.171Z</time>
			</trkpt>
			<trkpt lat="51.6782" lon="6.86175">
				<ele>33.55</ele>
				<time>2025-07-19T09:36:37.513Z</time>
			</trkpt>
			<trkpt lat="51.67848" lon="6.86193">
				<ele>33.47</ele>
				<time>2025-07-19T09:36:41.094Z</time>
			</trkpt>
			<trkpt lat="51.67881" lon="6.86205">
				<ele>31.82</ele>
				<time>2025-07-19T09:36:45.131Z</time>
			</trkpt>
			<trkpt lat="51.67895" lon="6.86207">
				<ele>31.47</ele>
				<time>2025-07-19T09:36:46.814Z</time>
			</trkpt>
			<trkpt lat="51.67925" lon="6.86206">
				<ele>31.46</ele>
				<time>2025-07-19T09:36:50.421Z</time>
			</trkpt>
			<trkpt lat="51.67942" lon="6.86202">
				<ele>31.69</ele>
				<time>2025-07-19T09:36:52.495Z</time>
			</trkpt>
			<trkpt lat="51.68012" lon="6.86165">
				<ele>31.58</ele>
				<time>2025-07-19T09:37:01.473Z</time>
			</trkpt>
			<trkpt lat="51.6804" lon="6.86156">
				<ele>31.38</ele>
				<time>2025-07-19T09:37:04.995Z</time>
			</trkpt>
			<trkpt lat="51.68066" lon="6.86154">
				<ele>32.07</ele>
				<time>2025-07-19T09:37:08.229Z</time>
			</trkpt>
			<trkpt lat="51.6809" lon="6.86158">
				<ele>33.26</ele>
				<time>2025-07-19T09:37:11.247Z</time>
			</trkpt>
			<trkpt lat="51.68124" lon="6.8617">
				<ele>33.87</ele>
				<time>2025-07-19T09:37:15.638Z</time>
			</trkpt>
			<trkpt lat="51.68238" lon="6.86224">
				<ele>32.4</ele>
				<time>2025-07-19T09:37:31.011Z</time>
			</trkpt>
			<trkpt lat="51.68268" lon="6.86246">
				<ele>31.26</ele>
				<time>2025-07-19T09:37:35.392Z</time>
			</trkpt>
			<trkpt lat="51.68294" lon="6.86271">
				<ele>32.38</ele>
				<time>2025-07-19T09:37:39.462Z</time>
			</trkpt>
			<trkpt lat="51.68327" lon="6.86308">
				<ele>33.71</ele>
				<time>2025-07-19T09:37:44.930Z</time>
			</trkpt>
			<trkpt lat="51.68382" lon="6.86378">
				<ele>33.29</ele>
				<time>2025-07-19T09:37:54.629Z</time>
			</trkpt>
			<trkpt lat="51.68447" lon="6.86471">
				<ele>33.13</ele>
				<time>2025-07-19T09:38:06.923Z</time>
			</trkpt>
			<trkpt lat="51.68519" lon="6.86569">
				<ele>33.85</ele>
				<time>2025-07-19T09:38:20.544Z</time>
			</trkpt>
			<trkpt lat="51.68554" lon="6.86601">
				<ele>33.97</ele>
				<time>2025-07-19T09:38:26.441Z</time>
			</trkpt>
			<trkpt lat="51.6862" lon="6.86642">
				<ele>36.26</ele>
				<time>2025-07-19T09:38:36.909Z</time>
			</trkpt>
			<trkpt lat="51.68721" lon="6.86684">
				<ele>37.67</ele>
				<time>2025-07-19T09:38:52.540Z</time>
			</trkpt>
			<trkpt lat="51.68809" lon="6.86714">
				<ele>38.71</ele>
				<time>2025-07-19T09:39:06.159Z</time>
			</trkpt>
			<trkpt lat="51.68854" lon="6.86727">
				<ele>39.14</ele>
				<time>2025-07-19T09:39:13.117Z</time>
			</trkpt>
			<trkpt lat="51.68866" lon="6.86725">
				<ele>39.1</ele>
				<time>2025-07-19T09:39:14.955Z</time>
			</trkpt>
			<trkpt lat="51.68892" lon="6.86714">
				<ele>38.43</ele>
				<time>2025-07-19T09:39:19.056Z</time>
			</trkpt>
			<trkpt lat="51.68908" lon="6.86703">
				<ele>37.62</ele>
				<time>2025-07-19T09:39:21.711Z</time>
			</trkpt>
			<trkpt lat="51.68997" lon="6.8661">
				<ele>36.09</ele>
				<time>2025-07-19T09:39:37.918Z</time>
			</trkpt>
			<trkpt lat="51.69013" lon="6.86598">
				<ele>35.22</ele>
				<time>2025-07-19T09:39:40.614Z</time>
			</trkpt>
			<trkpt lat="51.69022" lon="6.86594">
				<ele>34.44</ele>
				<time>2025-07-19T09:39:42.040Z</time>
			</trkpt>
			<trkpt lat="51.69029" lon="6.86596">
				<ele>33.91</ele>
				<time>2025-07-19T09:39:43.126Z</time>
			</trkpt>
			<trkpt lat="51.69029" lon="6.86567">
				<ele>33.9</ele>
				<time>2025-07-19T09:39:45.870Z</time>
			</trkpt>
			<trkpt lat="51.69023" lon="6.86543">
				<ele>34.43</ele>
				<time>2025-07-19T09:39:48.313Z</time>
			</trkpt>
			<trkpt lat="51.68874" lon="6.86161">
				<ele>36.96</ele>
				<time>2025-07-19T09:40:24.494Z</time>
			</trkpt>
			<trkpt lat="51.68732" lon="6.858">
				<ele>43.92</ele>
				<time>2025-07-19T09:40:59.152Z</time>
			</trkpt>
			<trkpt lat="51.68809" lon="6.85757">
				<ele>42.28</ele>
				<time>2025-07-19T09:41:24.639Z</time>
			</trkpt>
			<trkpt lat="51.68779" lon="6.85529">
				<ele>40</ele>
				<time>2025-07-19T09:42:11.501Z</time>
			</trkpt>
			<trkpt lat="51.68775" lon="6.85459">
				<ele>38.91</ele>
				<time>2025-07-19T09:42:25.074Z</time>
			</trkpt>
			<trkpt lat="51.68771" lon="6.85419">
				<ele>39.28</ele>
				<time>2025-07-19T09:42:32.781Z</time>
			</trkpt>
			<trkpt lat="51.68745" lon="6.85268">
				<ele>37.5</ele>
				<time>2025-07-19T09:43:01.805Z</time>
			</trkpt>
			<trkpt lat="51.68744" lon="6.8525">
				<ele>36.79</ele>
				<time>2025-07-19T09:43:05.072Z</time>
			</trkpt>
			<trkpt lat="51.68896" lon="6.84352">
				<ele>38</ele>
				<time>2025-07-19T09:45:32.304Z</time>
			</trkpt>
			<trkpt lat="51.68993" lon="6.8377">
				<ele>46.46</ele>
				<time>2025-07-19T09:46:47.393Z</time>
			</trkpt>
			<trkpt lat="51.69011" lon="6.83662">
				<ele>45.99</ele>
				<time>2025-07-19T09:46:59.743Z</time>
			</trkpt>
			<trkpt lat="51.69019" lon="6.83057">
				<ele>53.7</ele>
				<time>2025-07-19T09:47:58.686Z</time>
			</trkpt>
			<trkpt lat="51.69022" lon="6.82535">
				<ele>52.83</ele>
				<time>2025-07-19T09:48:39.760Z</time>
			</trkpt>
			<trkpt lat="51.69384" lon="6.81709">
				<ele>35.32</ele>
				<time>2025-07-19T09:49:37.748Z</time>
			</trkpt>
			<trkpt lat="51.69452" lon="6.81558">
				<ele>37.7</ele>
				<time>2025-07-19T09:49:45.815Z</time>
			</trkpt>
			<trkpt lat="51.69524" lon="6.8139">
				<ele>34.06</ele>
				<time>2025-07-19T09:49:53.844Z</time>
			</trkpt>
			<trkpt lat="51.69612" lon="6.81144">
				<ele>38.8</ele>
				<time>2025-07-19T09:50:03.740Z</time>
			</trkpt>
			<trkpt lat="51.69834" lon="6.80552">
				<ele>37.09</ele>
				<time>2025-07-19T09:50:22.662Z</time>
			</trkpt>
			<trkpt lat="51.69868" lon="6.80452">
				<ele>36.72</ele>
				<time>2025-07-19T09:50:25.202Z</time>
			</trkpt>
			<trkpt lat="51.6988" lon="6.80399">
				<ele>37.83</ele>
				<time>2025-07-19T09:50:26.408Z</time>
			</trkpt>
			<trkpt lat="51.69926" lon="6.80096">
				<ele>39.4</ele>
				<time>2025-07-19T09:50:32.544Z</time>
			</trkpt>
			<trkpt lat="51.69932" lon="6.80064">
				<ele>42.04</ele>
				<time>2025-07-19T09:50:33.154Z</time>
			</trkpt>
			<trkpt lat="51.69939" lon="6.80047">
				<ele>43.19</ele>
				<time>2025-07-19T09:50:33.522Z</time>
			</trkpt>
			<trkpt lat="51.70094" lon="6.79844">
				<ele>42.6</ele>
				<time>2025-07-19T09:50:38.985Z</time>
			</trkpt>
			<trkpt lat="51.7011" lon="6.79817">
				<ele>42.56</ele>
				<time>2025-07-19T09:50:39.582Z</time>
			</trkpt>
			<trkpt lat="51.70124" lon="6.7979">
				<ele>42.78</ele>
				<time>2025-07-19T09:50:40.139Z</time>
			</trkpt>
			<trkpt lat="51.70144" lon="6.79742">
				<ele>44.04</ele>
				<time>2025-07-19T09:50:41.043Z</time>
			</trkpt>
			<trkpt lat="51.70156" lon="6.79707">
				<ele>45.2</ele>
				<time>2025-07-19T09:50:41.661Z</time>
			</trkpt>
			<trkpt lat="51.70166" lon="6.7967">
				<ele>46.84</ele>
				<time>2025-07-19T09:50:42.279Z</time>
			</trkpt>
			<trkpt lat="51.70175" lon="6.79613">
				<ele>48.53</ele>
				<time>2025-07-19T09:50:43.171Z</time>
			</trkpt>
			<trkpt lat="51.70194" lon="6.79471">
				<ele>46.96</ele>
				<time>2025-07-19T09:50:45.336Z</time>
			</trkpt>
			<trkpt lat="51.70197" lon="6.79432">
				<ele>46.33</ele>
				<time>2025-07-19T09:50:45.916Z</time>
			</trkpt>
			<trkpt lat="51.70195" lon="6.79339">
				<ele>46.95</ele>
				<time>2025-07-19T09:50:47.280Z</time>
			</trkpt>
			<trkpt lat="51.70196" lon="6.79278">
				<ele>47</ele>
				<time>2025-07-19T09:50:48.171Z</time>
			</trkpt>
			<trkpt lat="51.70198" lon="6.7922">
				<ele>48.89</ele>
				<time>2025-07-19T09:50:49.020Z</time>
			</trkpt>
			<trkpt lat="51.70203" lon="6.79185">
				<ele>49.78</ele>
				<time>2025-07-19T09:50:49.545Z</time>
			</trkpt>
			<trkpt lat="51.70209" lon="6.79149">
				<ele>50.9</ele>
				<time>2025-07-19T09:50:50.090Z</time>
			</trkpt>
			<trkpt lat="51.70221" lon="6.79096">
				<ele>53.55</ele>
				<time>2025-07-19T09:50:50.918Z</time>
			</trkpt>
			<trkpt lat="51.70241" lon="6.79041">
				<ele>56.97</ele>
				<time>2025-07-19T09:50:51.859Z</time>
			</trkpt>
			<trkpt lat="51.70348" lon="6.78884">
				<ele>54.29</ele>
				<time>2025-07-19T09:50:55.379Z</time>
			</trkpt>
			<trkpt lat="51.70409" lon="6.78818">
				<ele>52.76</ele>
				<time>2025-07-19T09:50:57.233Z</time>
			</trkpt>
			<trkpt lat="51.70471" lon="6.78759">
				<ele>52.97</ele>
				<time>2025-07-19T09:50:59.111Z</time>
			</trkpt>
			<trkpt lat="51.70498" lon="6.7873">
				<ele>53.95</ele>
				<time>2025-07-19T09:50:59.980Z</time>
			</trkpt>
			<trkpt lat="51.70511" lon="6.78707">
				<ele>55.39</ele>
				<time>2025-07-19T09:51:00.504Z</time>
			</trkpt>
			<trkpt lat="51.70534" lon="6.78654">
				<ele>58.49</ele>
				<time>2025-07-19T09:51:01.612Z</time>
			</trkpt>
			<trkpt lat="51.70645" lon="6.78332">
				<ele>58.44</ele>
				<time>2025-07-19T09:51:08.492Z</time>
			</trkpt>
			<trkpt lat="51.70665" lon="6.78318">
				<ele>58.84</ele>
				<time>2025-07-19T09:51:09.208Z</time>
			</trkpt>
			<trkpt lat="51.70685" lon="6.78299">
				<ele>59.06</ele>
				<time>2025-07-19T09:51:09.983Z</time>
			</trkpt>
			<trkpt lat="51.70885" lon="6.78075">
				<ele>56.72</ele>
				<time>2025-07-19T09:51:18.857Z</time>
			</trkpt>
			<trkpt lat="51.70997" lon="6.77959">
				<ele>59.23</ele>
				<time>2025-07-19T09:51:24.254Z</time>
			</trkpt>
			<trkpt lat="51.71017" lon="6.77931">
				<ele>61.53</ele>
				<time>2025-07-19T09:51:25.371Z</time>
			</trkpt>
			<trkpt lat="51.71031" lon="6.77905">
				<ele>63.24</ele>
				<time>2025-07-19T09:51:26.282Z</time>
			</trkpt>
			<trkpt lat="51.71087" lon="6.77771">
				<ele>68.31</ele>
				<time>2025-07-19T09:51:30.676Z</time>
			</trkpt>
			<trkpt lat="51.7111" lon="6.77723">
				<ele>68.01</ele>
				<time>2025-07-19T09:51:32.375Z</time>
			</trkpt>
			<trkpt lat="51.71181" lon="6.77585">
				<ele>58.95</ele>
				<time>2025-07-19T09:51:37.550Z</time>
			</trkpt>
			<trkpt lat="51.71291" lon="6.77381">
				<ele>55.4</ele>
				<time>2025-07-19T09:51:45.758Z</time>
			</trkpt>
			<trkpt lat="51.71318" lon="6.77326">
				<ele>55.8</ele>
				<time>2025-07-19T09:51:47.963Z</time>
			</trkpt>
			<trkpt lat="51.71398" lon="6.77127">
				<ele>57.08</ele>
				<time>2025-07-19T09:51:55.633Z</time>
			</trkpt>
			<trkpt lat="51.71407" lon="6.77092">
				<ele>58.56</ele>
				<time>2025-07-19T09:51:56.888Z</time>
			</trkpt>
			<trkpt lat="51.71412" lon="6.77059">
				<ele>58.84</ele>
				<time>2025-07-19T09:51:58.019Z</time>
			</trkpt>
			<trkpt lat="51.71414" lon="6.77028">
				<ele>58.99</ele>
				<time>2025-07-19T09:51:59.063Z</time>
			</trkpt>
			<trkpt lat="51.71411" lon="6.76824">
				<ele>60.45</ele>
				<time>2025-07-19T09:52:06.019Z</time>
			</trkpt>
			<trkpt lat="51.71388" lon="6.76583">
				<ele>60.99</ele>
				<time>2025-07-19T09:52:14.594Z</time>
			</trkpt>
			<trkpt lat="51.71363" lon="6.76432">
				<ele>60.72</ele>
				<time>2025-07-19T09:52:20.229Z</time>
			</trkpt>
			<trkpt lat="51.71356" lon="6.7637">
				<ele>61.65</ele>
				<time>2025-07-19T09:52:22.529Z</time>
			</trkpt>
			<trkpt lat="51.71354" lon="6.76337">
				<ele>61.55</ele>
				<time>2025-07-19T09:52:23.745Z</time>
			</trkpt>
			<trkpt lat="51.71357" lon="6.76285">
				<ele>59.15</ele>
				<time>2025-07-19T09:52:25.669Z</time>
			</trkpt>
			<trkpt lat="51.71361" lon="6.76252">
				<ele>59.06</ele>
				<time>2025-07-19T09:52:26.913Z</time>
			</trkpt>
			<trkpt lat="51.71368" lon="6.76217">
				<ele>59.68</ele>
				<time>2025-07-19T09:52:28.278Z</time>
			</trkpt>
			<trkpt lat="51.71431" lon="6.75992">
				<ele>59.47</ele>
				<time>2025-07-19T09:52:37.563Z</time>
			</trkpt>
			<trkpt lat="51.71552" lon="6.75567">
				<ele>54</ele>
				<time>2025-07-19T09:52:55.624Z</time>
			</trkpt>
			<trkpt lat="51.71641" lon="6.75192">
				<ele>52.95</ele>
				<time>2025-07-19T09:53:11.486Z</time>
			</trkpt>
			<trkpt lat="51.71665" lon="6.75087">
				<ele>52.09</ele>
				<time>2025-07-19T09:53:15.945Z</time>
			</trkpt>
			<trkpt lat="51.71668" lon="6.7506">
				<ele>51.76</ele>
				<time>2025-07-19T09:53:17.039Z</time>
			</trkpt>
			<trkpt lat="51.71667" lon="6.75">
				<ele>51.95</ele>
				<time>2025-07-19T09:53:19.436Z</time>
			</trkpt>
			<trkpt lat="51.71662" lon="6.74913">
				<ele>54.08</ele>
				<time>2025-07-19T09:53:22.931Z</time>
			</trkpt>
			<trkpt lat="51.71631" lon="6.74455">
				<ele>51</ele>
				<time>2025-07-19T09:53:41.385Z</time>
			</trkpt>
			<trkpt lat="51.7161" lon="6.74202">
				<ele>56.91</ele>
				<time>2025-07-19T09:53:51.579Z</time>
			</trkpt>
			<trkpt lat="51.71594" lon="6.7405">
				<ele>55.18</ele>
				<time>2025-07-19T09:53:57.706Z</time>
			</trkpt>
			<trkpt lat="51.71575" lon="6.73912">
				<ele>54.6</ele>
				<time>2025-07-19T09:54:03.295Z</time>
			</trkpt>
			<trkpt lat="51.71575" lon="6.73879">
				<ele>55.45</ele>
				<time>2025-07-19T09:54:04.596Z</time>
			</trkpt>
			<trkpt lat="51.716" lon="6.7378">
				<ele>53.71</ele>
				<time>2025-07-19T09:54:08.795Z</time>
			</trkpt>
			<trkpt lat="51.71621" lon="6.73707">
				<ele>52.79</ele>
				<time>2025-07-19T09:54:11.941Z</time>
			</trkpt>
			<trkpt lat="51.71651" lon="6.73588">
				<ele>49.16</ele>
				<time>2025-07-19T09:54:16.934Z</time>
			</trkpt>
			<trkpt lat="51.71654" lon="6.73571">
				<ele>48.68</ele>
				<time>2025-07-19T09:54:17.618Z</time>
			</trkpt>
			<trkpt lat="51.71658" lon="6.73545">
				<ele>47.92</ele>
				<time>2025-07-19T09:54:18.653Z</time>
			</trkpt>
			<trkpt lat="51.71688" lon="6.73207">
				<ele>49.22</ele>
				<time>2025-07-19T09:54:31.674Z</time>
			</trkpt>
			<trkpt lat="51.71703" lon="6.73084">
				<ele>48.3</ele>
				<time>2025-07-19T09:54:36.364Z</time>
			</trkpt>
			<trkpt lat="51.71741" lon="6.72836">
				<ele>50.3</ele>
				<time>2025-07-19T09:54:45.747Z</time>
			</trkpt>
			<trkpt lat="51.71742" lon="6.72802">
				<ele>51.58</ele>
				<time>2025-07-19T09:54:46.978Z</time>
			</trkpt>
			<trkpt lat="51.71741" lon="6.72783">
				<ele>52.09</ele>
				<time>2025-07-19T09:54:47.665Z</time>
			</trkpt>
			<trkpt lat="51.71713" lon="6.72599">
				<ele>56.39</ele>
				<time>2025-07-19T09:54:54.411Z</time>
			</trkpt>
			<trkpt lat="51.71678" lon="6.72376">
				<ele>47.89</ele>
				<time>2025-07-19T09:55:02.378Z</time>
			</trkpt>
			<trkpt lat="51.71645" lon="6.7225">
				<ele>46.22</ele>
				<time>2025-07-19T09:55:06.990Z</time>
			</trkpt>
			<trkpt lat="51.71635" lon="6.72225">
				<ele>45.47</ele>
				<time>2025-07-19T09:55:07.980Z</time>
			</trkpt>
			<trkpt lat="51.71612" lon="6.72185">
				<ele>42.15</ele>
				<time>2025-07-19T09:55:09.784Z</time>
			</trkpt>
			<trkpt lat="51.7161" lon="6.72179">
				<ele>41.94</ele>
				<time>2025-07-19T09:55:10.008Z</time>
			</trkpt>
			<trkpt lat="51.71608" lon="6.72159">
				<ele>40.95</ele>
				<time>2025-07-19T09:55:10.672Z</time>
			</trkpt>
			<trkpt lat="51.71594" lon="6.72155">
				<ele>38.94</ele>
				<time>2025-07-19T09:55:11.422Z</time>
			</trkpt>
			<trkpt lat="51.71587" lon="6.7215">
				<ele>37.9</ele>
				<time>2025-07-19T09:55:11.825Z</time>
			</trkpt>
			<trkpt lat="51.7158" lon="6.72144">
				<ele>37.25</ele>
				<time>2025-07-19T09:55:12.240Z</time>
			</trkpt>
			<trkpt lat="51.71571" lon="6.72129">
				<ele>37.24</ele>
				<time>2025-07-19T09:55:12.918Z</time>
			</trkpt>
			<trkpt lat="51.71564" lon="6.72105">
				<ele>37.15</ele>
				<time>2025-07-19T09:55:13.775Z</time>
			</trkpt>
			<trkpt lat="51.71552" lon="6.72033">
				<ele>35.87</ele>
				<time>2025-07-19T09:55:16.172Z</time>
			</trkpt>
			<trkpt lat="51.71538" lon="6.71997">
				<ele>35.46</ele>
				<time>2025-07-19T09:55:17.532Z</time>
			</trkpt>
			<trkpt lat="51.71526" lon="6.71969">
				<ele>37.21</ele>
				<time>2025-07-19T09:55:18.618Z</time>
			</trkpt>
			<trkpt lat="51.71545" lon="6.71941">
				<ele>36.71</ele>
				<time>2025-07-19T09:55:19.942Z</time>
			</trkpt>
			<trkpt lat="51.71697" lon="6.71728">
				<ele>33.25</ele>
				<time>2025-07-19T09:55:30.283Z</time>
			</trkpt>
			<trkpt lat="51.71725" lon="6.71683">
				<ele>33.99</ele>
				<time>2025-07-19T09:55:32.318Z</time>
			</trkpt>
			<trkpt lat="51.71766" lon="6.71611">
				<ele>36.91</ele>
				<time>2025-07-19T09:55:35.449Z</time>
			</trkpt>
			<trkpt lat="51.71842" lon="6.71473">
				<ele>34.45</ele>
				<time>2025-07-19T09:55:41.407Z</time>
			</trkpt>
			<trkpt lat="51.71935" lon="6.71303">
				<ele>29.58</ele>
				<time>2025-07-19T09:55:48.849Z</time>
			</trkpt>
			<trkpt lat="51.71996" lon="6.71193">
				<ele>27.11</ele>
				<time>2025-07-19T09:55:53.791Z</time>
			</trkpt>
			<trkpt lat="51.72027" lon="6.71134">
				<ele>27</ele>
				<time>2025-07-19T09:55:56.418Z</time>
			</trkpt>
			<trkpt lat="51.72034" lon="6.71119">
				<ele>27</ele>
				<time>2025-07-19T09:55:57.060Z</time>
			</trkpt>
			<trkpt lat="51.72075" lon="6.71005">
				<ele>26.29</ele>
				<time>2025-07-19T09:56:01.617Z</time>
			</trkpt>
			<trkpt lat="51.72096" lon="6.70952">
				<ele>26.52</ele>
				<time>2025-07-19T09:56:03.825Z</time>
			</trkpt>
			<trkpt lat="51.72116" lon="6.70913">
				<ele>26.81</ele>
				<time>2025-07-19T09:56:05.618Z</time>
			</trkpt>
			<trkpt lat="51.72155" lon="6.70848">
				<ele>27</ele>
				<time>2025-07-19T09:56:08.863Z</time>
			</trkpt>
			<trkpt lat="51.72221" lon="6.70742">
				<ele>31.98</ele>
				<time>2025-07-19T09:56:14.372Z</time>
			</trkpt>
			<trkpt lat="51.72257" lon="6.7069">
				<ele>29.71</ele>
				<time>2025-07-19T09:56:17.295Z</time>
			</trkpt>
			<trkpt lat="51.72308" lon="6.70629">
				<ele>30</ele>
				<time>2025-07-19T09:56:21.205Z</time>
			</trkpt>
			<trkpt lat="51.72367" lon="6.70567">
				<ele>30</ele>
				<time>2025-07-19T09:56:25.643Z</time>
			</trkpt>
			<trkpt lat="51.72388" lon="6.70542">
				<ele>29.52</ele>
				<time>2025-07-19T09:56:27.316Z</time>
			</trkpt>
			<trkpt lat="51.72425" lon="6.70489">
				<ele>31.12</ele>
				<time>2025-07-19T09:56:30.531Z</time>
			</trkpt>
			<trkpt lat="51.72447" lon="6.70451">
				<ele>32.74</ele>
				<time>2025-07-19T09:56:32.657Z</time>
			</trkpt>
			<trkpt lat="51.72603" lon="6.70151">
				<ele>39.65</ele>
				<time>2025-07-19T09:56:49.548Z</time>
			</trkpt>
			<trkpt lat="51.72688" lon="6.69956">
				<ele>42.45</ele>
				<time>2025-07-19T09:57:00.674Z</time>
			</trkpt>
			<trkpt lat="51.72723" lon="6.69887">
				<ele>41.92</ele>
				<time>2025-07-19T09:57:05.016Z</time>
			</trkpt>
			<trkpt lat="51.72831" lon="6.6975">
				<ele>43.93</ele>
				<time>2025-07-19T09:57:16.273Z</time>
			</trkpt>
			<trkpt lat="51.72982" lon="6.69573">
				<ele>52.13</ele>
				<time>2025-07-19T09:57:32.694Z</time>
			</trkpt>
			<trkpt lat="51.73011" lon="6.69541">
				<ele>52.92</ele>
				<time>2025-07-19T09:57:35.940Z</time>
			</trkpt>
			<trkpt lat="51.73044" lon="6.69516">
				<ele>52.39</ele>
				<time>2025-07-19T09:57:39.363Z</time>
			</trkpt>
			<trkpt lat="51.73069" lon="6.69501">
				<ele>51.51</ele>
				<time>2025-07-19T09:57:41.902Z</time>
			</trkpt>
			<trkpt lat="51.73175" lon="6.69461">
				<ele>49.66</ele>
				<time>2025-07-19T09:57:52.589Z</time>
			</trkpt>
			<trkpt lat="51.73245" lon="6.69437">
				<ele>51.44</ele>
				<time>2025-07-19T09:57:59.904Z</time>
			</trkpt>
			<trkpt lat="51.73229" lon="6.6934">
				<ele>50</ele>
				<time>2025-07-19T09:58:06.448Z</time>
			</trkpt>
			<trkpt lat="51.73223" lon="6.69319">
				<ele>50.02</ele>
				<time>2025-07-19T09:58:07.979Z</time>
			</trkpt>
			<trkpt lat="51.73204" lon="6.69286">
				<ele>50</ele>
				<time>2025-07-19T09:58:10.983Z</time>
			</trkpt>
			<trkpt lat="51.7317" lon="6.69247">
				<ele>52.95</ele>
				<time>2025-07-19T09:58:15.522Z</time>
			</trkpt>
			<trkpt lat="51.73062" lon="6.6915">
				<ele>51.58</ele>
				<time>2025-07-19T09:58:29.233Z</time>
			</trkpt>
			<trkpt lat="51.73041" lon="6.69125">
				<ele>52</ele>
				<time>2025-07-19T09:58:32.161Z</time>
			</trkpt>
			<trkpt lat="51.73013" lon="6.69074">
				<ele>52</ele>
				<time>2025-07-19T09:58:36.913Z</time>
			</trkpt>
			<trkpt lat="51.72998" lon="6.69021">
				<ele>51.93</ele>
				<time>2025-07-19T09:58:40.982Z</time>
			</trkpt>
			<trkpt lat="51.72894" lon="6.68535">
				<ele>47.69</ele>
				<time>2025-07-19T09:59:16.209Z</time>
			</trkpt>
			<trkpt lat="51.72888" lon="6.68515">
				<ele>46.54</ele>
				<time>2025-07-19T09:59:17.668Z</time>
			</trkpt>
			<trkpt lat="51.7288" lon="6.68495">
				<ele>46.04</ele>
				<time>2025-07-19T09:59:19.222Z</time>
			</trkpt>
			<trkpt lat="51.72867" lon="6.68467">
				<ele>46.77</ele>
				<time>2025-07-19T09:59:21.489Z</time>
			</trkpt>
			<trkpt lat="51.72814" lon="6.68385">
				<ele>48.04</ele>
				<time>2025-07-19T09:59:28.994Z</time>
			</trkpt>
			<trkpt lat="51.72783" lon="6.68331">
				<ele>43.65</ele>
				<time>2025-07-19T09:59:33.507Z</time>
			</trkpt>
			<trkpt lat="51.72775" lon="6.68324">
				<ele>42.94</ele>
				<time>2025-07-19T09:59:34.392Z</time>
			</trkpt>
			<trkpt lat="51.72806" lon="6.68234">
				<ele>36.97</ele>
				<time>2025-07-19T09:59:40.450Z</time>
			</trkpt>
			<trkpt lat="51.72822" lon="6.68202">
				<ele>36.64</ele>
				<time>2025-07-19T09:59:42.799Z</time>
			</trkpt>
			<trkpt lat="51.72844" lon="6.68168">
				<ele>36</ele>
				<time>2025-07-19T09:59:45.557Z</time>
			</trkpt>
			<trkpt lat="51.72872" lon="6.68133">
				<ele>37.4</ele>
				<time>2025-07-19T09:59:48.697Z</time>
			</trkpt>
			<trkpt lat="51.72903" lon="6.68104">
				<ele>38.4</ele>
				<time>2025-07-19T09:59:51.802Z</time>
			</trkpt>
			<trkpt lat="51.72921" lon="6.68091">
				<ele>38.42</ele>
				<time>2025-07-19T09:59:53.482Z</time>
			</trkpt>
			<trkpt lat="51.72952" lon="6.68075">
				<ele>39</ele>
				<time>2025-07-19T09:59:56.211Z</time>
			</trkpt>
			<trkpt lat="51.72969" lon="6.68069">
				<ele>39</ele>
				<time>2025-07-19T09:59:57.647Z</time>
			</trkpt>
			<trkpt lat="51.73002" lon="6.68062">
				<ele>38.81</ele>
				<time>2025-07-19T10:00:00.355Z</time>
			</trkpt>
			<trkpt lat="51.73052" lon="6.68063">
				<ele>35.44</ele>
				<time>2025-07-19T10:00:04.324Z</time>
			</trkpt>
			<trkpt lat="51.73213" lon="6.68084">
				<ele>39.34</ele>
				<time>2025-07-19T10:00:16.434Z</time>
			</trkpt>
			<trkpt lat="51.73259" lon="6.68083">
				<ele>41.65</ele>
				<time>2025-07-19T10:00:19.708Z</time>
			</trkpt>
			<trkpt lat="51.73313" lon="6.68072">
				<ele>40.27</ele>
				<time>2025-07-19T10:00:23.497Z</time>
			</trkpt>
			<trkpt lat="51.73333" lon="6.68066">
				<ele>40</ele>
				<time>2025-07-19T10:00:24.891Z</time>
			</trkpt>
			<trkpt lat="51.73521" lon="6.67981">
				<ele>46.1</ele>
				<time>2025-07-19T10:00:37.780Z</time>
			</trkpt>
			<trkpt lat="51.73599" lon="6.67941">
				<ele>44.5</ele>
				<time>2025-07-19T10:00:42.987Z</time>
			</trkpt>
			<trkpt lat="51.73657" lon="6.67908">
				<ele>45</ele>
				<time>2025-07-19T10:00:46.854Z</time>
			</trkpt>
			<trkpt lat="51.73782" lon="6.67826">
				<ele>51.74</ele>
				<time>2025-07-19T10:00:55.275Z</time>
			</trkpt>
			<trkpt lat="51.73799" lon="6.67816">
				<ele>52.37</ele>
				<time>2025-07-19T10:00:56.404Z</time>
			</trkpt>
			<trkpt lat="51.73845" lon="6.678">
				<ele>50.24</ele>
				<time>2025-07-19T10:00:59.342Z</time>
			</trkpt>
			<trkpt lat="51.73882" lon="6.67798">
				<ele>47.47</ele>
				<time>2025-07-19T10:01:01.657Z</time>
			</trkpt>
			<trkpt lat="51.73916" lon="6.67802">
				<ele>44.88</ele>
				<time>2025-07-19T10:01:03.789Z</time>
			</trkpt>
			<trkpt lat="51.73933" lon="6.67807">
				<ele>45.05</ele>
				<time>2025-07-19T10:01:04.869Z</time>
			</trkpt>
			<trkpt lat="51.73969" lon="6.67821">
				<ele>45.56</ele>
				<time>2025-07-19T10:01:07.185Z</time>
			</trkpt>
			<trkpt lat="51.74822" lon="6.68219">
				<ele>49.28</ele>
				<time>2025-07-19T10:02:00.233Z</time>
			</trkpt>
			<trkpt lat="51.74907" lon="6.68256">
				<ele>49.61</ele>
				<time>2025-07-19T10:02:04.969Z</time>
			</trkpt>
			<trkpt lat="51.74983" lon="6.68284">
				<ele>47</ele>
				<time>2025-07-19T10:02:09.042Z</time>
			</trkpt>
			<trkpt lat="51.75187" lon="6.6835">
				<ele>49.9</ele>
				<time>2025-07-19T10:02:19.292Z</time>
			</trkpt>
			<trkpt lat="51.7528" lon="6.68381">
				<ele>51</ele>
				<time>2025-07-19T10:02:23.636Z</time>
			</trkpt>
			<trkpt lat="51.75399" lon="6.6842">
				<ele>49</ele>
				<time>2025-07-19T10:02:28.853Z</time>
			</trkpt>
			<trkpt lat="51.75425" lon="6.68288">
				<ele>47.68</ele>
				<time>2025-07-19T10:02:32.297Z</time>
			</trkpt>
			<trkpt lat="51.75434" lon="6.68228">
				<ele>48</ele>
				<time>2025-07-19T10:02:33.773Z</time>
			</trkpt>
			<trkpt lat="51.75444" lon="6.68144">
				<ele>49</ele>
				<time>2025-07-19T10:02:35.765Z</time>
			</trkpt>
			<trkpt lat="51.7545" lon="6.6804">
				<ele>48.12</ele>
				<time>2025-07-19T10:02:38.124Z</time>
			</trkpt>
			<trkpt lat="51.75452" lon="6.67977">
				<ele>47.47</ele>
				<time>2025-07-19T10:02:39.515Z</time>
			</trkpt>
			<trkpt lat="51.75452" lon="6.67915">
				<ele>47.27</ele>
				<time>2025-07-19T10:02:40.861Z</time>
			</trkpt>
			<trkpt lat="51.7544" lon="6.67619">
				<ele>47.85</ele>
				<time>2025-07-19T10:02:47.096Z</time>
			</trkpt>
			<trkpt lat="51.75442" lon="6.67518">
				<ele>47</ele>
				<time>2025-07-19T10:02:49.180Z</time>
			</trkpt>
			<trkpt lat="51.75448" lon="6.67422">
				<ele>46.29</ele>
				<time>2025-07-19T10:02:51.169Z</time>
			</trkpt>
			<trkpt lat="51.75476" lon="6.6726">
				<ele>45.65</ele>
				<time>2025-07-19T10:02:54.667Z</time>
			</trkpt>
			<trkpt lat="51.75599" lon="6.66618">
				<ele>48.51</ele>
				<time>2025-07-19T10:03:10.079Z</time>
			</trkpt>
			<trkpt lat="51.75622" lon="6.66517">
				<ele>48</ele>
				<time>2025-07-19T10:03:12.917Z</time>
			</trkpt>
			<trkpt lat="51.75643" lon="6.66444">
				<ele>47.84</ele>
				<time>2025-07-19T10:03:15.133Z</time>
			</trkpt>
			<trkpt lat="51.75735" lon="6.66175">
				<ele>54.68</ele>
				<time>2025-07-19T10:03:24.438Z</time>
			</trkpt>
			<trkpt lat="51.75775" lon="6.66037">
				<ele>51.39</ele>
				<time>2025-07-19T10:03:29.623Z</time>
			</trkpt>
			<trkpt lat="51.75812" lon="6.65844">
				<ele>51.23</ele>
				<time>2025-07-19T10:03:37.176Z</time>
			</trkpt>
			<trkpt lat="51.75821" lon="6.65776">
				<ele>51.94</ele>
				<time>2025-07-19T10:03:39.970Z</time>
			</trkpt>
			<trkpt lat="51.75831" lon="6.65659">
				<ele>48.57</ele>
				<time>2025-07-19T10:03:44.962Z</time>
			</trkpt>
			<trkpt lat="51.75836" lon="6.65498">
				<ele>40.32</ele>
				<time>2025-07-19T10:03:52.304Z</time>
			</trkpt>
			<trkpt lat="51.75836" lon="6.65289">
				<ele>36.95</ele>
				<time>2025-07-19T10:04:02.808Z</time>
			</trkpt>
			<trkpt lat="51.75847" lon="6.6515">
				<ele>37.7</ele>
				<time>2025-07-19T10:04:10.523Z</time>
			</trkpt>
			<trkpt lat="51.7586" lon="6.65066">
				<ele>38</ele>
				<time>2025-07-19T10:04:15.576Z</time>
			</trkpt>
			<trkpt lat="51.75843" lon="6.65057">
				<ele>38</ele>
				<time>2025-07-19T10:04:17.313Z</time>
			</trkpt>
			<trkpt lat="51.75828" lon="6.65036">
				<ele>38.67</ele>
				<time>2025-07-19T10:04:19.270Z</time>
			</trkpt>
			<trkpt lat="51.75776" lon="6.64903">
				<ele>41.51</ele>
				<time>2025-07-19T10:04:29.287Z</time>
			</trkpt>
			<trkpt lat="51.75758" lon="6.6488">
				<ele>42.2</ele>
				<time>2025-07-19T10:04:31.741Z</time>
			</trkpt>
			<trkpt lat="51.75591" lon="6.64762">
				<ele>43.87</ele>
				<time>2025-07-19T10:04:52.265Z</time>
			</trkpt>
			<trkpt lat="51.75582" lon="6.64745">
				<ele>44</ele>
				<time>2025-07-19T10:04:53.887Z</time>
			</trkpt>
			<trkpt lat="51.75576" lon="6.64722">
				<ele>44</ele>
				<time>2025-07-19T10:04:55.706Z</time>
			</trkpt>
			<trkpt lat="51.75548" lon="6.64595">
				<ele>44.11</ele>
				<time>2025-07-19T10:05:05.665Z</time>
			</trkpt>
			<trkpt lat="51.75499" lon="6.64424">
				<ele>43</ele>
				<time>2025-07-19T10:05:19.872Z</time>
			</trkpt>
			<trkpt lat="51.7549" lon="6.64407">
				<ele>43</ele>
				<time>2025-07-19T10:05:21.572Z</time>
			</trkpt>
			<trkpt lat="51.75469" lon="6.64383">
				<ele>42.92</ele>
				<time>2025-07-19T10:05:24.737Z</time>
			</trkpt>
			<trkpt lat="51.75452" lon="6.64369">
				<ele>42.77</ele>
				<time>2025-07-19T10:05:27.087Z</time>
			</trkpt>
			<trkpt lat="51.75431" lon="6.64361">
				<ele>42.99</ele>
				<time>2025-07-19T10:05:29.747Z</time>
			</trkpt>
			<trkpt lat="51.75406" lon="6.64345">
				<ele>42.61</ele>
				<time>2025-07-19T10:05:33.062Z</time>
			</trkpt>
			<trkpt lat="51.75386" lon="6.64328">
				<ele>41.92</ele>
				<time>2025-07-19T10:05:35.848Z</time>
			</trkpt>
			<trkpt lat="51.75373" lon="6.64312">
				<ele>41.85</ele>
				<time>2025-07-19T10:05:37.862Z</time>
			</trkpt>
			<trkpt lat="51.75309" lon="6.64207">
				<ele>44.06</ele>
				<time>2025-07-19T10:05:49.055Z</time>
			</trkpt>
			<trkpt lat="51.75291" lon="6.64162">
				<ele>45.04</ele>
				<time>2025-07-19T10:05:53.095Z</time>
			</trkpt>
			<trkpt lat="51.75262" lon="6.64071">
				<ele>35.88</ele>
				<time>2025-07-19T10:06:00.743Z</time>
			</trkpt>
			<trkpt lat="51.75248" lon="6.64018">
				<ele>30.24</ele>
				<time>2025-07-19T10:06:05.000Z</time>
			</trkpt>
			<trkpt lat="51.75205" lon="6.63729">
				<ele>23</ele>
				<time>2025-07-19T10:06:26.166Z</time>
			</trkpt>
			<trkpt lat="51.75193" lon="6.6369">
				<ele>22.95</ele>
				<time>2025-07-19T10:06:29.127Z</time>
			</trkpt>
			<trkpt lat="51.75143" lon="6.63572">
				<ele>22</ele>
				<time>2025-07-19T10:06:38.537Z</time>
			</trkpt>
			<trkpt lat="51.75136" lon="6.63561">
				<ele>21.89</ele>
				<time>2025-07-19T10:06:39.544Z</time>
			</trkpt>
			<trkpt lat="51.75105" lon="6.63529">
				<ele>21.92</ele>
				<time>2025-07-19T10:06:43.273Z</time>
			</trkpt>
			<trkpt lat="51.74995" lon="6.6343">
				<ele>21.16</ele>
				<time>2025-07-19T10:06:55.229Z</time>
			</trkpt>
			<trkpt lat="51.74984" lon="6.63416">
				<ele>21.43</ele>
				<time>2025-07-19T10:06:56.475Z</time>
			</trkpt>
			<trkpt lat="51.74949" lon="6.63354">
				<ele>20.13</ele>
				<time>2025-07-19T10:07:00.940Z</time>
			</trkpt>
			<trkpt lat="51.74896" lon="6.63248">
				<ele>21.7</ele>
				<time>2025-07-19T10:07:07.762Z</time>
			</trkpt>
			<trkpt lat="51.7488" lon="6.63215">
				<ele>21.04</ele>
				<time>2025-07-19T10:07:09.781Z</time>
			</trkpt>
			<trkpt lat="51.74867" lon="6.63201">
				<ele>21.01</ele>
				<time>2025-07-19T10:07:10.984Z</time>
			</trkpt>
			<trkpt lat="51.74841" lon="6.63185">
				<ele>20.9</ele>
				<time>2025-07-19T10:07:13.106Z</time>
			</trkpt>
			<trkpt lat="51.7478" lon="6.63142">
				<ele>20.1</ele>
				<time>2025-07-19T10:07:18.119Z</time>
			</trkpt>
			<trkpt lat="51.74761" lon="6.63122">
				<ele>20</ele>
				<time>2025-07-19T10:07:19.822Z</time>
			</trkpt>
			<trkpt lat="51.74752" lon="6.63106">
				<ele>20</ele>
				<time>2025-07-19T10:07:20.828Z</time>
			</trkpt>
			<trkpt lat="51.74744" lon="6.63064">
				<ele>20.2</ele>
				<time>2025-07-19T10:07:22.880Z</time>
			</trkpt>
			<trkpt lat="51.74737" lon="6.63017">
				<ele>20.44</ele>
				<time>2025-07-19T10:07:25.157Z</time>
			</trkpt>
			<trkpt lat="51.74727" lon="6.62937">
				<ele>20.61</ele>
				<time>2025-07-19T10:07:29.071Z</time>
			</trkpt>
			<trkpt lat="51.74711" lon="6.62782">
				<ele>18.37</ele>
				<time>2025-07-19T10:07:37.006Z</time>
			</trkpt>
			<trkpt lat="51.74706" lon="6.62763">
				<ele>18.78</ele>
				<time>2025-07-19T10:07:38.101Z</time>
			</trkpt>
			<trkpt lat="51.74698" lon="6.62744">
				<ele>19</ele>
				<time>2025-07-19T10:07:39.336Z</time>
			</trkpt>
			<trkpt lat="51.74584" lon="6.62566">
				<ele>20.96</ele>
				<time>2025-07-19T10:07:54.622Z</time>
			</trkpt>
			<trkpt lat="51.74497" lon="6.6239">
				<ele>19.1</ele>
				<time>2025-07-19T10:08:11.126Z</time>
			</trkpt>
			<trkpt lat="51.74436" lon="6.6224">
				<ele>17.28</ele>
				<time>2025-07-19T10:08:26.998Z</time>
			</trkpt>
			<trkpt lat="51.74415" lon="6.62197">
				<ele>17.09</ele>
				<time>2025-07-19T10:08:32.404Z</time>
			</trkpt>
			<trkpt lat="51.74405" lon="6.6218">
				<ele>17</ele>
				<time>2025-07-19T10:08:34.806Z</time>
			</trkpt>
			<trkpt lat="51.74395" lon="6.62175">
				<ele>17</ele>
				<time>2025-07-19T10:08:36.571Z</time>
			</trkpt>
			<trkpt lat="51.74356" lon="6.62182">
				<ele>18.17</ele>
				<time>2025-07-19T10:08:43.443Z</time>
			</trkpt>
			<trkpt lat="51.7434" lon="6.62118">
				<ele>19</ele>
				<time>2025-07-19T10:08:51.400Z</time>
			</trkpt>
			<trkpt lat="51.74318" lon="6.62023">
				<ele>19.46</ele>
				<time>2025-07-19T10:09:03.930Z</time>
			</trkpt>
			<trkpt lat="51.74316" lon="6.62005">
				<ele>19.4</ele>
				<time>2025-07-19T10:09:06.286Z</time>
			</trkpt>
			<trkpt lat="51.74321" lon="6.61952">
				<ele>20</ele>
				<time>2025-07-19T10:09:13.346Z</time>
			</trkpt>
			<trkpt lat="51.7435" lon="6.61739">
				<ele>20.43</ele>
				<time>2025-07-19T10:09:44.020Z</time>
			</trkpt>
			<trkpt lat="51.74371" lon="6.61594">
				<ele>20.58</ele>
				<time>2025-07-19T10:10:05.962Z</time>
			</trkpt>
			<trkpt lat="51.74381" lon="6.61506">
				<ele>21</ele>
				<time>2025-07-19T10:10:18.586Z</time>
			</trkpt>
			<trkpt lat="51.74381" lon="6.61468">
				<ele>22</ele>
				<time>2025-07-19T10:10:23.636Z</time>
			</trkpt>
			<trkpt lat="51.74391" lon="6.6145">
				<ele>21.9</ele>
				<time>2025-07-19T10:10:26.722Z</time>
			</trkpt>
			<trkpt lat="51.74403" lon="6.61419">
				<ele>21.47</ele>
				<time>2025-07-19T10:10:31.180Z</time>
			</trkpt>
			<trkpt lat="51.74413" lon="6.61405">
				<ele>21.11</ele>
				<time>2025-07-19T10:10:33.673Z</time>
			</trkpt>
			<trkpt lat="51.74422" lon="6.61401">
				<ele>20.78</ele>
				<time>2025-07-19T10:10:35.380Z</time>
			</trkpt>
			<trkpt lat="51.74439" lon="6.61402">
				<ele>20.19</ele>
				<time>2025-07-19T10:10:38.388Z</time>
			</trkpt>
			<trkpt lat="51.7458" lon="6.61431">
				<ele>17.36</ele>
				<time>2025-07-19T10:10:58.584Z</time>
			</trkpt>
			<trkpt lat="51.74948" lon="6.61497">
				<ele>18.48</ele>
				<time>2025-07-19T10:11:18.635Z</time>
			</trkpt>
			<trkpt lat="51.74983" lon="6.61501">
				<ele>22.25</ele>
				<time>2025-07-19T10:11:18.781Z</time>
			</trkpt>
			<trkpt lat="51.75037" lon="6.61499">
				<ele>25.69</ele>
				<time>2025-07-19T10:11:18.606Z</time>
			</trkpt>
			<trkpt lat="51.75102" lon="6.6149">
				<ele>28.44</ele>
				<time>2025-07-19T10:11:17.857Z</time>
			</trkpt>
			<trkpt lat="51.75517" lon="6.61397">
				<ele>22.14</ele>
				<time>2025-07-19T10:11:08.629Z</time>
			</trkpt>
			<trkpt lat="51.75767" lon="6.61338">
				<ele>20</ele>
				<time>2025-07-19T10:11:10.392Z</time>
			</trkpt>
			<trkpt lat="51.758" lon="6.61324">
				<ele>20.82</ele>
				<time>2025-07-19T10:11:11.661Z</time>
			</trkpt>
			<trkpt lat="51.75847" lon="6.61294">
				<ele>22.62</ele>
				<time>2025-07-19T10:11:14.119Z</time>
			</trkpt>
			<trkpt lat="51.75896" lon="6.61245">
				<ele>21.36</ele>
				<time>2025-07-19T10:11:17.843Z</time>
			</trkpt>
			<trkpt lat="51.75967" lon="6.61148">
				<ele>21.19</ele>
				<time>2025-07-19T10:11:26.168Z</time>
			</trkpt>
			<trkpt lat="51.75994" lon="6.61117">
				<ele>22.75</ele>
				<time>2025-07-19T10:11:29.892Z</time>
			</trkpt>
			<trkpt lat="51.76014" lon="6.61096">
				<ele>22.98</ele>
				<time>2025-07-19T10:11:32.839Z</time>
			</trkpt>
			<trkpt lat="51.76036" lon="6.61079">
				<ele>22.62</ele>
				<time>2025-07-19T10:11:36.089Z</time>
			</trkpt>
			<trkpt lat="51.76077" lon="6.61055">
				<ele>20.39</ele>
				<time>2025-07-19T10:11:42.524Z</time>
			</trkpt>
			<trkpt lat="51.76098" lon="6.61047">
				<ele>20.12</ele>
				<time>2025-07-19T10:11:46.015Z</time>
			</trkpt>
			<trkpt lat="51.76151" lon="6.61035">
				<ele>19.29</ele>
				<time>2025-07-19T10:11:55.591Z</time>
			</trkpt>
			<trkpt lat="51.76316" lon="6.61005">
				<ele>22.4</ele>
				<time>2025-07-19T10:12:34.406Z</time>
			</trkpt>
			<trkpt lat="51.76316" lon="6.60995">
				<ele>22.18</ele>
				<time>2025-07-19T10:12:36.140Z</time>
			</trkpt>
			<trkpt lat="51.76296" lon="6.60805">
				<ele>20.68</ele>
				<time>2025-07-19T10:13:12.780Z</time>
			</trkpt>
			<trkpt lat="51.76286" lon="6.60724">
				<ele>20.32</ele>
				<time>2025-07-19T10:13:29.253Z</time>
			</trkpt>
			<trkpt lat="51.76279" lon="6.60694">
				<ele>21.07</ele>
				<time>2025-07-19T10:13:35.578Z</time>
			</trkpt>
			<trkpt lat="51.7626" lon="6.60643">
				<ele>21.82</ele>
				<time>2025-07-19T10:13:47.054Z</time>
			</trkpt>
			<trkpt lat="51.76333" lon="6.60642">
				<ele>21.14</ele>
				<time>2025-07-19T10:14:08.178Z</time>
			</trkpt>
			<trkpt lat="51.76348" lon="6.60631">
				<ele>21</ele>
				<time>2025-07-19T10:14:12.612Z</time>
			</trkpt>
			<trkpt lat="51.76404" lon="6.6057">
				<ele>20.21</ele>
				<time>2025-07-19T10:14:29.481Z</time>
			</trkpt>
			<trkpt lat="51.76485" lon="6.60473">
				<ele>20.42</ele>
				<time>2025-07-19T10:14:50.633Z</time>
			</trkpt>
			<trkpt lat="51.76517" lon="6.60423">
				<ele>20.86</ele>
				<time>2025-07-19T10:14:58.388Z</time>
			</trkpt>
			<trkpt lat="51.76565" lon="6.60449">
				<ele>22</ele>
				<time>2025-07-19T10:15:06.164Z</time>
			</trkpt>
			<trkpt lat="51.76582" lon="6.60467">
				<ele>22</ele>
				<time>2025-07-19T10:15:09.277Z</time>
			</trkpt>
			<trkpt lat="51.76587" lon="6.60431">
				<ele>21.91</ele>
				<time>2025-07-19T10:15:13.027Z</time>
			</trkpt>
			<trkpt lat="51.76595" lon="6.60401">
				<ele>22.24</ele>
				<time>2025-07-19T10:15:16.638Z</time>
			</trkpt>
			<trkpt lat="51.76603" lon="6.60388">
				<ele>22.7</ele>
				<time>2025-07-19T10:15:18.776Z</time>
			</trkpt>
			<trkpt lat="51.76612" lon="6.60379">
				<ele>22.64</ele>
				<time>2025-07-19T10:15:20.839Z</time>
			</trkpt>
			<trkpt lat="51.76623" lon="6.60372">
				<ele>22.4</ele>
				<time>2025-07-19T10:15:23.215Z</time>
			</trkpt>
			<trkpt lat="51.76649" lon="6.6036">
				<ele>22</ele>
				<time>2025-07-19T10:15:28.913Z</time>
			</trkpt>
			<trkpt lat="51.76653" lon="6.60355">
				<ele>22</ele>
				<time>2025-07-19T10:15:30.016Z</time>
			</trkpt>
			<trkpt lat="51.76656" lon="6.60347">
				<ele>22</ele>
				<time>2025-07-19T10:15:31.291Z</time>
			</trkpt>
			<trkpt lat="51.76658" lon="6.60183">
				<ele>20.27</ele>
				<time>2025-07-19T10:15:55.320Z</time>
			</trkpt>
			<trkpt lat="51.76658" lon="6.60163">
				<ele>20.21</ele>
				<time>2025-07-19T10:15:58.381Z</time>
			</trkpt>
			<trkpt lat="51.76619" lon="6.59967">
				<ele>19.88</ele>
				<time>2025-07-19T10:16:29.392Z</time>
			</trkpt>
			<trkpt lat="51.76615" lon="6.59935">
				<ele>19.19</ele>
				<time>2025-07-19T10:16:33.988Z</time>
			</trkpt>
			<trkpt lat="51.76614" lon="6.59921">
				<ele>19.25</ele>
				<time>2025-07-19T10:16:35.925Z</time>
			</trkpt>
			<trkpt lat="51.76616" lon="6.59899">
				<ele>20.35</ele>
				<time>2025-07-19T10:16:38.917Z</time>
			</trkpt>
			<trkpt lat="51.76625" lon="6.59841">
				<ele>21.35</ele>
				<time>2025-07-19T10:16:46.527Z</time>
			</trkpt>
			<trkpt lat="51.76634" lon="6.59824">
				<ele>22.14</ele>
				<time>2025-07-19T10:16:49.208Z</time>
			</trkpt>
			<trkpt lat="51.76675" lon="6.59771">
				<ele>21.22</ele>
				<time>2025-07-19T10:16:58.608Z</time>
			</trkpt>
			<trkpt lat="51.76691" lon="6.59746">
				<ele>20.09</ele>
				<time>2025-07-19T10:17:02.245Z</time>
			</trkpt>
			<trkpt lat="51.76821" lon="6.59521">
				<ele>20.24</ele>
				<time>2025-07-19T10:17:26.435Z</time>
			</trkpt>
			<trkpt lat="51.76899" lon="6.59293">
				<ele>23.05</ele>
				<time>2025-07-19T10:17:40.183Z</time>
			</trkpt>
			<trkpt lat="51.76925" lon="6.59261">
				<ele>22.61</ele>
				<time>2025-07-19T10:17:42.562Z</time>
			</trkpt>
			<trkpt lat="51.76964" lon="6.59237">
				<ele>22.28</ele>
				<time>2025-07-19T10:17:45.502Z</time>
			</trkpt>
			<trkpt lat="51.7698" lon="6.5922">
				<ele>21.36</ele>
				<time>2025-07-19T10:17:46.830Z</time>
			</trkpt>
			<trkpt lat="51.76988" lon="6.59204">
				<ele>20.57</ele>
				<time>2025-07-19T10:17:47.709Z</time>
			</trkpt>
			<trkpt lat="51.76947" lon="6.59171">
				<ele>21.07</ele>
				<time>2025-07-19T10:17:50.878Z</time>
			</trkpt>
			<trkpt lat="51.76913" lon="6.59139">
				<ele>19.81</ele>
				<time>2025-07-19T10:17:53.609Z</time>
			</trkpt>
			<trkpt lat="51.76881" lon="6.59104">
				<ele>18.33</ele>
				<time>2025-07-19T10:17:56.299Z</time>
			</trkpt>
			<trkpt lat="51.76853" lon="6.59069">
				<ele>19.86</ele>
				<time>2025-07-19T10:17:58.769Z</time>
			</trkpt>
			<trkpt lat="51.76809" lon="6.58999">
				<ele>20.81</ele>
				<time>2025-07-19T10:18:03.085Z</time>
			</trkpt>
			<trkpt lat="51.7679" lon="6.58961">
				<ele>20.52</ele>
				<time>2025-07-19T10:18:05.200Z</time>
			</trkpt>
			<trkpt lat="51.76771" lon="6.58915">
				<ele>20</ele>
				<time>2025-07-19T10:18:07.595Z</time>
			</trkpt>
			<trkpt lat="51.76746" lon="6.58845">
				<ele>21.63</ele>
				<time>2025-07-19T10:18:11.093Z</time>
			</trkpt>
			<trkpt lat="51.76725" lon="6.58768">
				<ele>22.12</ele>
				<time>2025-07-19T10:18:14.729Z</time>
			</trkpt>
			<trkpt lat="51.76717" lon="6.58725">
				<ele>21.81</ele>
				<time>2025-07-19T10:18:16.666Z</time>
			</trkpt>
			<trkpt lat="51.76705" lon="6.58648">
				<ele>23.05</ele>
				<time>2025-07-19T10:18:20.084Z</time>
			</trkpt>
			<trkpt lat="51.76699" lon="6.58544">
				<ele>23.59</ele>
				<time>2025-07-19T10:18:24.558Z</time>
			</trkpt>
			<trkpt lat="51.76699" lon="6.58436">
				<ele>21</ele>
				<time>2025-07-19T10:18:29.151Z</time>
			</trkpt>
			<trkpt lat="51.76701" lon="6.58375">
				<ele>20.5</ele>
				<time>2025-07-19T10:18:31.732Z</time>
			</trkpt>
			<trkpt lat="51.76705" lon="6.58314">
				<ele>20</ele>
				<time>2025-07-19T10:18:34.308Z</time>
			</trkpt>
			<trkpt lat="51.76721" lon="6.58179">
				<ele>20</ele>
				<time>2025-07-19T10:18:40.020Z</time>
			</trkpt>
			<trkpt lat="51.76732" lon="6.58027">
				<ele>20.36</ele>
				<time>2025-07-19T10:18:46.261Z</time>
			</trkpt>
			<trkpt lat="51.76748" lon="6.57887">
				<ele>19.8</ele>
				<time>2025-07-19T10:18:51.937Z</time>
			</trkpt>
			<trkpt lat="51.7675" lon="6.57868">
				<ele>19.23</ele>
				<time>2025-07-19T10:18:52.694Z</time>
			</trkpt>
			<trkpt lat="51.76817" lon="6.57474">
				<ele>18.52</ele>
				<time>2025-07-19T10:19:08.169Z</time>
			</trkpt>
			<trkpt lat="51.76845" lon="6.57305">
				<ele>20</ele>
				<time>2025-07-19T10:19:14.501Z</time>
			</trkpt>
			<trkpt lat="51.76863" lon="6.57206">
				<ele>21.47</ele>
				<time>2025-07-19T10:19:18.168Z</time>
			</trkpt>
			<trkpt lat="51.76884" lon="6.57105">
				<ele>21</ele>
				<time>2025-07-19T10:19:21.910Z</time>
			</trkpt>
			<trkpt lat="51.76903" lon="6.57025">
				<ele>21.06</ele>
				<time>2025-07-19T10:19:24.890Z</time>
			</trkpt>
			<trkpt lat="51.76922" lon="6.56954">
				<ele>21.28</ele>
				<time>2025-07-19T10:19:27.561Z</time>
			</trkpt>
			<trkpt lat="51.76952" lon="6.56852">
				<ele>20</ele>
				<time>2025-07-19T10:19:31.430Z</time>
			</trkpt>
			<trkpt lat="51.77001" lon="6.56711">
				<ele>20.61</ele>
				<time>2025-07-19T10:19:36.922Z</time>
			</trkpt>
			<trkpt lat="51.77071" lon="6.56545">
				<ele>20.18</ele>
				<time>2025-07-19T10:19:43.694Z</time>
			</trkpt>
			<trkpt lat="51.77121" lon="6.56443">
				<ele>20.98</ele>
				<time>2025-07-19T10:19:48.067Z</time>
			</trkpt>
			<trkpt lat="51.77156" lon="6.56379">
				<ele>20.02</ele>
				<time>2025-07-19T10:19:50.938Z</time>
			</trkpt>
			<trkpt lat="51.77225" lon="6.56257">
				<ele>17.73</ele>
				<time>2025-07-19T10:19:56.506Z</time>
			</trkpt>
			<trkpt lat="51.77273" lon="6.56181">
				<ele>19</ele>
				<time>2025-07-19T10:20:00.183Z</time>
			</trkpt>
			<trkpt lat="51.77403" lon="6.55973">
				<ele>17.51</ele>
				<time>2025-07-19T10:20:10.319Z</time>
			</trkpt>
			<trkpt lat="51.77455" lon="6.55884">
				<ele>17.82</ele>
				<time>2025-07-19T10:20:14.591Z</time>
			</trkpt>
			<trkpt lat="51.77482" lon="6.55832">
				<ele>17</ele>
				<time>2025-07-19T10:20:16.984Z</time>
			</trkpt>
			<trkpt lat="51.77541" lon="6.5571">
				<ele>17.2</ele>
				<time>2025-07-19T10:20:22.517Z</time>
			</trkpt>
			<trkpt lat="51.77613" lon="6.55531">
				<ele>19.93</ele>
				<time>2025-07-19T10:20:30.340Z</time>
			</trkpt>
			<trkpt lat="51.77925" lon="6.54722">
				<ele>21.69</ele>
				<time>2025-07-19T10:21:09.195Z</time>
			</trkpt>
			<trkpt lat="51.77974" lon="6.54602">
				<ele>17.93</ele>
				<time>2025-07-19T10:21:15.775Z</time>
			</trkpt>
			<trkpt lat="51.78006" lon="6.5453">
				<ele>17.66</ele>
				<time>2025-07-19T10:21:19.946Z</time>
			</trkpt>
			<trkpt lat="51.78061" lon="6.54419">
				<ele>17.02</ele>
				<time>2025-07-19T10:21:26.827Z</time>
			</trkpt>
			<trkpt lat="51.78117" lon="6.54323">
				<ele>17.35</ele>
				<time>2025-07-19T10:21:33.432Z</time>
			</trkpt>
			<trkpt lat="51.78267" lon="6.54075">
				<ele>17</ele>
				<time>2025-07-19T10:21:51.885Z</time>
			</trkpt>
			<trkpt lat="51.78557" lon="6.53602">
				<ele>17.95</ele>
				<time>2025-07-19T10:22:32.367Z</time>
			</trkpt>
			<trkpt lat="51.7866" lon="6.53439">
				<ele>17.03</ele>
				<time>2025-07-19T10:22:48.306Z</time>
			</trkpt>
			<trkpt lat="51.78711" lon="6.53346">
				<ele>16</ele>
				<time>2025-07-19T10:22:57.220Z</time>
			</trkpt>
			<trkpt lat="51.78848" lon="6.53086">
				<ele>17.89</ele>
				<time>2025-07-19T10:23:23.281Z</time>
			</trkpt>
			<trkpt lat="51.78894" lon="6.52989">
				<ele>18</ele>
				<time>2025-07-19T10:23:33.191Z</time>
			</trkpt>
			<trkpt lat="51.78514" lon="6.5238">
				<ele>15.31</ele>
				<time>2025-07-19T10:24:49.060Z</time>
			</trkpt>
			<trkpt lat="51.78318" lon="6.52068">
				<ele>17</ele>
				<time>2025-07-19T10:25:27.245Z</time>
			</trkpt>
			<trkpt lat="51.78346" lon="6.52011">
				<ele>18</ele>
				<time>2025-07-19T10:25:33.143Z</time>
			</trkpt>
			<trkpt lat="51.7837" lon="6.51966">
				<ele>17.28</ele>
				<time>2025-07-19T10:25:37.865Z</time>
			</trkpt>
			<trkpt lat="51.78456" lon="6.51817">
				<ele>17.01</ele>
				<time>2025-07-19T10:25:53.455Z</time>
			</trkpt>
			<trkpt lat="51.78498" lon="6.51752">
				<ele>17.06</ele>
				<time>2025-07-19T10:26:00.338Z</time>
			</trkpt>
			<trkpt lat="51.78563" lon="6.51704">
				<ele>16.74</ele>
				<time>2025-07-19T10:26:08.543Z</time>
			</trkpt>
			<trkpt lat="51.78729" lon="6.51539">
				<ele>15.84</ele>
				<time>2025-07-19T10:26:29.566Z</time>
			</trkpt>
			<trkpt lat="51.78738" lon="6.51532">
				<ele>16.24</ele>
				<time>2025-07-19T10:26:30.593Z</time>
			</trkpt>
			<trkpt lat="51.78757" lon="6.51531">
				<ele>17.04</ele>
				<time>2025-07-19T10:26:32.534Z</time>
			</trkpt>
			<trkpt lat="51.7878" lon="6.51513">
				<ele>17</ele>
				<time>2025-07-19T10:26:35.116Z</time>
			</trkpt>
			<trkpt lat="51.7838" lon="6.50786">
				<ele>19</ele>
				<time>2025-07-19T10:27:27.816Z</time>
			</trkpt>
			<trkpt lat="51.78226" lon="6.50505">
				<ele>24.15</ele>
				<time>2025-07-19T10:27:44.476Z</time>
			</trkpt>
			<trkpt lat="51.7815" lon="6.50374">
				<ele>21</ele>
				<time>2025-07-19T10:27:51.828Z</time>
			</trkpt>
			<trkpt lat="51.781" lon="6.50293">
				<ele>21.61</ele>
				<time>2025-07-19T10:27:56.320Z</time>
			</trkpt>
			<trkpt lat="51.78022" lon="6.50174">
				<ele>20.18</ele>
				<time>2025-07-19T10:28:02.856Z</time>
			</trkpt>
			<trkpt lat="51.77935" lon="6.5005">
				<ele>21.83</ele>
				<time>2025-07-19T10:28:09.582Z</time>
			</trkpt>
			<trkpt lat="51.77805" lon="6.49893">
				<ele>22</ele>
				<time>2025-07-19T10:28:18.444Z</time>
			</trkpt>
			<trkpt lat="51.7779" lon="6.49882">
				<ele>21.89</ele>
				<time>2025-07-19T10:28:19.310Z</time>
			</trkpt>
			<trkpt lat="51.77772" lon="6.49875">
				<ele>22.09</ele>
				<time>2025-07-19T10:28:20.277Z</time>
			</trkpt>
			<trkpt lat="51.77548" lon="6.49827">
				<ele>17.84</ele>
				<time>2025-07-19T10:28:31.531Z</time>
			</trkpt>
			<trkpt lat="51.77481" lon="6.49815">
				<ele>18.68</ele>
				<time>2025-07-19T10:28:34.711Z</time>
			</trkpt>
			<trkpt lat="51.77454" lon="6.49817">
				<ele>18.62</ele>
				<time>2025-07-19T10:28:35.965Z</time>
			</trkpt>
			<trkpt lat="51.7741" lon="6.49835">
				<ele>18</ele>
				<time>2025-07-19T10:28:38.047Z</time>
			</trkpt>
			<trkpt lat="51.77206" lon="6.4994">
				<ele>18.92</ele>
				<time>2025-07-19T10:28:47.488Z</time>
			</trkpt>
			<trkpt lat="51.77169" lon="6.49957">
				<ele>17.23</ele>
				<time>2025-07-19T10:28:49.128Z</time>
			</trkpt>
			<trkpt lat="51.7715" lon="6.49961">
				<ele>17</ele>
				<time>2025-07-19T10:28:49.938Z</time>
			</trkpt>
			<trkpt lat="51.77136" lon="6.49961">
				<ele>17.1</ele>
				<time>2025-07-19T10:28:50.528Z</time>
			</trkpt>
			<trkpt lat="51.77121" lon="6.49957">
				<ele>17.61</ele>
				<time>2025-07-19T10:28:51.167Z</time>
			</trkpt>
			<trkpt lat="51.77109" lon="6.49943">
				<ele>18.06</ele>
				<time>2025-07-19T10:28:51.787Z</time>
			</trkpt>
			<trkpt lat="51.77099" lon="6.49924">
				<ele>18.43</ele>
				<time>2025-07-19T10:28:52.431Z</time>
			</trkpt>
			<trkpt lat="51.77093" lon="6.49892">
				<ele>18.63</ele>
				<time>2025-07-19T10:28:53.292Z</time>
			</trkpt>
			<trkpt lat="51.77058" lon="6.49581">
				<ele>21.86</ele>
				<time>2025-07-19T10:29:01.271Z</time>
			</trkpt>
			<trkpt lat="51.77013" lon="6.49186">
				<ele>24.5</ele>
				<time>2025-07-19T10:29:11.303Z</time>
			</trkpt>
			<trkpt lat="51.77009" lon="6.49057">
				<ele>26.3</ele>
				<time>2025-07-19T10:29:14.664Z</time>
			</trkpt>
			<trkpt lat="51.77013" lon="6.48998">
				<ele>23.61</ele>
				<time>2025-07-19T10:29:16.252Z</time>
			</trkpt>
			<trkpt lat="51.77026" lon="6.4885">
				<ele>25</ele>
				<time>2025-07-19T10:29:20.408Z</time>
			</trkpt>
			<trkpt lat="51.77027" lon="6.4882">
				<ele>25.48</ele>
				<time>2025-07-19T10:29:21.275Z</time>
			</trkpt>
			<trkpt lat="51.77025" lon="6.48756">
				<ele>27.92</ele>
				<time>2025-07-19T10:29:23.163Z</time>
			</trkpt>
			<trkpt lat="51.77021" lon="6.48697">
				<ele>28.58</ele>
				<time>2025-07-19T10:29:24.964Z</time>
			</trkpt>
			<trkpt lat="51.77012" lon="6.48649">
				<ele>26.82</ele>
				<time>2025-07-19T10:29:26.527Z</time>
			</trkpt>
			<trkpt lat="51.76971" lon="6.48446">
				<ele>19.05</ele>
				<time>2025-07-19T10:29:33.676Z</time>
			</trkpt>
			<trkpt lat="51.76958" lon="6.48343">
				<ele>18.83</ele>
				<time>2025-07-19T10:29:37.527Z</time>
			</trkpt>
			<trkpt lat="51.76927" lon="6.48069">
				<ele>25.3</ele>
				<time>2025-07-19T10:29:49.002Z</time>
			</trkpt>
			<trkpt lat="51.76908" lon="6.4794">
				<ele>33.58</ele>
				<time>2025-07-19T10:29:55.205Z</time>
			</trkpt>
			<trkpt lat="51.76882" lon="6.4783">
				<ele>30.34</ele>
				<time>2025-07-19T10:30:01.163Z</time>
			</trkpt>
			<trkpt lat="51.76873" lon="6.47799">
				<ele>29.33</ele>
				<time>2025-07-19T10:30:02.981Z</time>
			</trkpt>
			<trkpt lat="51.76863" lon="6.4778">
				<ele>29.01</ele>
				<time>2025-07-19T10:30:04.329Z</time>
			</trkpt>
			<trkpt lat="51.76852" lon="6.47766">
				<ele>29.83</ele>
				<time>2025-07-19T10:30:05.571Z</time>
			</trkpt>
			<trkpt lat="51.76888" lon="6.47682">
				<ele>29.02</ele>
				<time>2025-07-19T10:30:11.399Z</time>
			</trkpt>
			<trkpt lat="51.76991" lon="6.47458">
				<ele>31.63</ele>
				<time>2025-07-19T10:30:29.033Z</time>
			</trkpt>
			<trkpt lat="51.77018" lon="6.47403">
				<ele>29.98</ele>
				<time>2025-07-19T10:30:33.829Z</time>
			</trkpt>
			<trkpt lat="51.77039" lon="6.47366">
				<ele>28.75</ele>
				<time>2025-07-19T10:30:37.339Z</time>
			</trkpt>
			<trkpt lat="51.77197" lon="6.47122">
				<ele>19.89</ele>
				<time>2025-07-19T10:31:03.709Z</time>
			</trkpt>
			<trkpt lat="51.77228" lon="6.47066">
				<ele>19</ele>
				<time>2025-07-19T10:31:09.649Z</time>
			</trkpt>
			<trkpt lat="51.77245" lon="6.4703">
				<ele>19.9</ele>
				<time>2025-07-19T10:31:13.275Z</time>
			</trkpt>
			<trkpt lat="51.77267" lon="6.46971">
				<ele>19.62</ele>
				<time>2025-07-19T10:31:18.855Z</time>
			</trkpt>
			<trkpt lat="51.77285" lon="6.46905">
				<ele>18.41</ele>
				<time>2025-07-19T10:31:24.773Z</time>
			</trkpt>
			<trkpt lat="51.77292" lon="6.4687">
				<ele>18</ele>
				<time>2025-07-19T10:31:27.818Z</time>
			</trkpt>
			<trkpt lat="51.77302" lon="6.46808">
				<ele>18</ele>
				<time>2025-07-19T10:31:33.163Z</time>
			</trkpt>
			<trkpt lat="51.77306" lon="6.46751">
				<ele>18.04</ele>
				<time>2025-07-19T10:31:37.989Z</time>
			</trkpt>
			<trkpt lat="51.77311" lon="6.46619">
				<ele>20.19</ele>
				<time>2025-07-19T10:31:49.238Z</time>
			</trkpt>
			<trkpt lat="51.77317" lon="6.46537">
				<ele>19.62</ele>
				<time>2025-07-19T10:31:56.333Z</time>
			</trkpt>
			<trkpt lat="51.77327" lon="6.46477">
				<ele>19.16</ele>
				<time>2025-07-19T10:32:01.700Z</time>
			</trkpt>
			<trkpt lat="51.77342" lon="6.46427">
				<ele>18.79</ele>
				<time>2025-07-19T10:32:06.515Z</time>
			</trkpt>
			<trkpt lat="51.77388" lon="6.46293">
				<ele>18.43</ele>
				<time>2025-07-19T10:32:19.846Z</time>
			</trkpt>
			<trkpt lat="51.7742" lon="6.46177">
				<ele>19.87</ele>
				<time>2025-07-19T10:32:30.911Z</time>
			</trkpt>
			<trkpt lat="51.77432" lon="6.46142">
				<ele>19.92</ele>
				<time>2025-07-19T10:32:34.393Z</time>
			</trkpt>
			<trkpt lat="51.77501" lon="6.45984">
				<ele>19.6</ele>
				<time>2025-07-19T10:32:51.143Z</time>
			</trkpt>
			<trkpt lat="51.77503" lon="6.45967">
				<ele>20.26</ele>
				<time>2025-07-19T10:32:52.633Z</time>
			</trkpt>
			<trkpt lat="51.77502" lon="6.45953">
				<ele>20.71</ele>
				<time>2025-07-19T10:32:53.844Z</time>
			</trkpt>
			<trkpt lat="51.77499" lon="6.4594">
				<ele>20.83</ele>
				<time>2025-07-19T10:32:55.036Z</time>
			</trkpt>
			<trkpt lat="51.77492" lon="6.4592">
				<ele>19.86</ele>
				<time>2025-07-19T10:32:57.005Z</time>
			</trkpt>
			<trkpt lat="51.77483" lon="6.45927">
				<ele>19.77</ele>
				<time>2025-07-19T10:32:58.387Z</time>
			</trkpt>
			<trkpt lat="51.7747" lon="6.45931">
				<ele>19.57</ele>
				<time>2025-07-19T10:33:00.214Z</time>
			</trkpt>
			<trkpt lat="51.77459" lon="6.45929">
				<ele>19.71</ele>
				<time>2025-07-19T10:33:01.740Z</time>
			</trkpt>
			<trkpt lat="51.77448" lon="6.45919">
				<ele>19.86</ele>
				<time>2025-07-19T10:33:03.475Z</time>
			</trkpt>
			<trkpt lat="51.77168" lon="6.45548">
				<ele>20.93</ele>
				<time>2025-07-19T10:33:51.322Z</time>
			</trkpt>
			<trkpt lat="51.77128" lon="6.45492">
				<ele>20.33</ele>
				<time>2025-07-19T10:33:57.919Z</time>
			</trkpt>
			<trkpt lat="51.77159" lon="6.45427">
				<ele>20.1</ele>
				<time>2025-07-19T10:34:04.134Z</time>
			</trkpt>
			<trkpt lat="51.77174" lon="6.45381">
				<ele>19.45</ele>
				<time>2025-07-19T10:34:08.013Z</time>
			</trkpt>
			<trkpt lat="51.77356" lon="6.44729">
				<ele>16.16</ele>
				<time>2025-07-19T10:34:57.071Z</time>
			</trkpt>
			<trkpt lat="51.77381" lon="6.44632">
				<ele>17.43</ele>
				<time>2025-07-19T10:35:03.660Z</time>
			</trkpt>
			<trkpt lat="51.77448" lon="6.44275">
				<ele>17.05</ele>
				<time>2025-07-19T10:35:25.931Z</time>
			</trkpt>
			<trkpt lat="51.77558" lon="6.43679">
				<ele>21.23</ele>
				<time>2025-07-19T10:35:59.692Z</time>
			</trkpt>
			<trkpt lat="51.77566" lon="6.43625">
				<ele>22.48</ele>
				<time>2025-07-19T10:36:02.531Z</time>
			</trkpt>
			<trkpt lat="51.77586" lon="6.43434">
				<ele>17.54</ele>
				<time>2025-07-19T10:36:12.243Z</time>
			</trkpt>
			<trkpt lat="51.77651" lon="6.43118">
				<ele>16.53</ele>
				<time>2025-07-19T10:36:28.314Z</time>
			</trkpt>
			<trkpt lat="51.77656" lon="6.43066">
				<ele>16</ele>
				<time>2025-07-19T10:36:30.790Z</time>
			</trkpt>
			<trkpt lat="51.77669" lon="6.42779">
				<ele>16</ele>
				<time>2025-07-19T10:36:44.075Z</time>
			</trkpt>
			<trkpt lat="51.77669" lon="6.42763">
				<ele>16</ele>
				<time>2025-07-19T10:36:44.803Z</time>
			</trkpt>
			<trkpt lat="51.77663" lon="6.42731">
				<ele>16.23</ele>
				<time>2025-07-19T10:36:46.319Z</time>
			</trkpt>
			<trkpt lat="51.77653" lon="6.42703">
				<ele>16.26</ele>
				<time>2025-07-19T10:36:47.781Z</time>
			</trkpt>
			<trkpt lat="51.77602" lon="6.42579">
				<ele>17.14</ele>
				<time>2025-07-19T10:36:54.463Z</time>
			</trkpt>
			<trkpt lat="51.77587" lon="6.42532">
				<ele>16.85</ele>
				<time>2025-07-19T10:36:56.818Z</time>
			</trkpt>
			<trkpt lat="51.77583" lon="6.42516">
				<ele>16.99</ele>
				<time>2025-07-19T10:36:57.585Z</time>
			</trkpt>
			<trkpt lat="51.77576" lon="6.42472">
				<ele>17.48</ele>
				<time>2025-07-19T10:36:59.600Z</time>
			</trkpt>
			<trkpt lat="51.77568" lon="6.42376">
				<ele>17.11</ele>
				<time>2025-07-19T10:37:03.877Z</time>
			</trkpt>
			<trkpt lat="51.77559" lon="6.42248">
				<ele>16.27</ele>
				<time>2025-07-19T10:37:09.532Z</time>
			</trkpt>
			<trkpt lat="51.77549" lon="6.42149">
				<ele>17.21</ele>
				<time>2025-07-19T10:37:13.916Z</time>
			</trkpt>
			<trkpt lat="51.77538" lon="6.42058">
				<ele>17</ele>
				<time>2025-07-19T10:37:17.957Z</time>
			</trkpt>
			<trkpt lat="51.77528" lon="6.42023">
				<ele>16</ele>
				<time>2025-07-19T10:37:19.635Z</time>
			</trkpt>
			<trkpt lat="51.77504" lon="6.41965">
				<ele>15.84</ele>
				<time>2025-07-19T10:37:22.670Z</time>
			</trkpt>
			<trkpt lat="51.77451" lon="6.41864">
				<ele>14.83</ele>
				<time>2025-07-19T10:37:28.426Z</time>
			</trkpt>
			<trkpt lat="51.774" lon="6.41773">
				<ele>15.5</ele>
				<time>2025-07-19T10:37:33.767Z</time>
			</trkpt>
			<trkpt lat="51.77343" lon="6.41687">
				<ele>15</ele>
				<time>2025-07-19T10:37:39.262Z</time>
			</trkpt>
			<trkpt lat="51.77134" lon="6.41428">
				<ele>17.7</ele>
				<time>2025-07-19T10:37:58.038Z</time>
			</trkpt>
			<trkpt lat="51.77036" lon="6.41625">
				<ele>16.13</ele>
				<time>2025-07-19T10:38:09.438Z</time>
			</trkpt>
			<trkpt lat="51.76999" lon="6.41681">
				<ele>16.01</ele>
				<time>2025-07-19T10:38:13.177Z</time>
			</trkpt>
			<trkpt lat="51.76961" lon="6.41724">
				<ele>16</ele>
				<time>2025-07-19T10:38:16.615Z</time>
			</trkpt>
			<trkpt lat="51.76944" lon="6.4174">
				<ele>16</ele>
				<time>2025-07-19T10:38:18.078Z</time>
			</trkpt>
			<trkpt lat="51.76929" lon="6.41753">
				<ele>16.6</ele>
				<time>2025-07-19T10:38:19.346Z</time>
			</trkpt>
			<trkpt lat="51.76882" lon="6.41783">
				<ele>17</ele>
				<time>2025-07-19T10:38:23.123Z</time>
			</trkpt>
			<trkpt lat="51.76642" lon="6.41927">
				<ele>15.86</ele>
				<time>2025-07-19T10:38:42.507Z</time>
			</trkpt>
			<trkpt lat="51.76556" lon="6.41967">
				<ele>15.97</ele>
				<time>2025-07-19T10:38:49.369Z</time>
			</trkpt>
			<trkpt lat="51.76511" lon="6.41984">
				<ele>15.66</ele>
				<time>2025-07-19T10:38:52.927Z</time>
			</trkpt>
			<trkpt lat="51.76419" lon="6.42008">
				<ele>17.18</ele>
				<time>2025-07-19T10:39:00.129Z</time>
			</trkpt>
			<trkpt lat="51.76388" lon="6.42024">
				<ele>18</ele>
				<time>2025-07-19T10:39:02.651Z</time>
			</trkpt>
			<trkpt lat="51.76369" lon="6.42036">
				<ele>18.78</ele>
				<time>2025-07-19T10:39:04.235Z</time>
			</trkpt>
			<trkpt lat="51.76341" lon="6.42059">
				<ele>18.87</ele>
				<time>2025-07-19T10:39:06.675Z</time>
			</trkpt>
			<trkpt lat="51.76293" lon="6.42107">
				<ele>16.12</ele>
				<time>2025-07-19T10:39:11.069Z</time>
			</trkpt>
			<trkpt lat="51.76257" lon="6.42156">
				<ele>16.85</ele>
				<time>2025-07-19T10:39:14.740Z</time>
			</trkpt>
			<trkpt lat="51.76211" lon="6.4224">
				<ele>16.39</ele>
				<time>2025-07-19T10:39:20.163Z</time>
			</trkpt>
			<trkpt lat="51.76166" lon="6.42336">
				<ele>18.08</ele>
				<time>2025-07-19T10:39:25.996Z</time>
			</trkpt>
			<trkpt lat="51.76146" lon="6.42379">
				<ele>18.19</ele>
				<time>2025-07-19T10:39:28.605Z</time>
			</trkpt>
			<trkpt lat="51.76139" lon="6.42398">
				<ele>18.05</ele>
				<time>2025-07-19T10:39:29.678Z</time>
			</trkpt>
			<trkpt lat="51.7613" lon="6.42438">
				<ele>17.36</ele>
				<time>2025-07-19T10:39:31.743Z</time>
			</trkpt>
			<trkpt lat="51.76125" lon="6.4249">
				<ele>16.38</ele>
				<time>2025-07-19T10:39:34.298Z</time>
			</trkpt>
			<trkpt lat="51.76124" lon="6.42526">
				<ele>15.96</ele>
				<time>2025-07-19T10:39:36.048Z</time>
			</trkpt>
			<trkpt lat="51.76128" lon="6.42837">
				<ele>14.62</ele>
				<time>2025-07-19T10:39:51.161Z</time>
			</trkpt>
			<trkpt lat="51.76124" lon="6.42888">
				<ele>14.47</ele>
				<time>2025-07-19T10:39:53.658Z</time>
			</trkpt>
			<trkpt lat="51.76115" lon="6.42934">
				<ele>14.68</ele>
				<time>2025-07-19T10:39:56.001Z</time>
			</trkpt>
			<trkpt lat="51.76105" lon="6.42966">
				<ele>14.8</ele>
				<time>2025-07-19T10:39:57.741Z</time>
			</trkpt>
			<trkpt lat="51.76096" lon="6.42991">
				<ele>15.15</ele>
				<time>2025-07-19T10:39:59.144Z</time>
			</trkpt>
			<trkpt lat="51.76082" lon="6.43017">
				<ele>15.6</ele>
				<time>2025-07-19T10:40:00.816Z</time>
			</trkpt>
			<trkpt lat="51.76064" lon="6.43041">
				<ele>15.82</ele>
				<time>2025-07-19T10:40:02.645Z</time>
			</trkpt>
			<trkpt lat="51.76033" lon="6.43073">
				<ele>16</ele>
				<time>2025-07-19T10:40:05.525Z</time>
			</trkpt>
			<trkpt lat="51.75909" lon="6.43166">
				<ele>16.24</ele>
				<time>2025-07-19T10:40:16.207Z</time>
			</trkpt>
			<trkpt lat="51.75881" lon="6.43199">
				<ele>17.04</ele>
				<time>2025-07-19T10:40:18.908Z</time>
			</trkpt>
			<trkpt lat="51.75858" lon="6.43237">
				<ele>17.9</ele>
				<time>2025-07-19T10:40:21.469Z</time>
			</trkpt>
			<trkpt lat="51.75738" lon="6.4347">
				<ele>18.02</ele>
				<time>2025-07-19T10:40:36.001Z</time>
			</trkpt>
			<trkpt lat="51.75704" lon="6.43522">
				<ele>17.62</ele>
				<time>2025-07-19T10:40:39.605Z</time>
			</trkpt>
			<trkpt lat="51.75679" lon="6.43555">
				<ele>18</ele>
				<time>2025-07-19T10:40:42.085Z</time>
			</trkpt>
			<trkpt lat="51.75649" lon="6.43589">
				<ele>17.5</ele>
				<time>2025-07-19T10:40:44.894Z</time>
			</trkpt>
			<trkpt lat="51.75616" lon="6.43633">
				<ele>17.13</ele>
				<time>2025-07-19T10:40:48.165Z</time>
			</trkpt>
			<trkpt lat="51.75457" lon="6.43846">
				<ele>17.51</ele>
				<time>2025-07-19T10:41:03.825Z</time>
			</trkpt>
			<trkpt lat="51.75441" lon="6.43861">
				<ele>17.99</ele>
				<time>2025-07-19T10:41:05.218Z</time>
			</trkpt>
			<trkpt lat="51.7543" lon="6.43868">
				<ele>17.86</ele>
				<time>2025-07-19T10:41:06.108Z</time>
			</trkpt>
			<trkpt lat="51.75412" lon="6.43874">
				<ele>17.3</ele>
				<time>2025-07-19T10:41:07.490Z</time>
			</trkpt>
			<trkpt lat="51.75357" lon="6.43879">
				<ele>14.94</ele>
				<time>2025-07-19T10:41:11.626Z</time>
			</trkpt>
			<trkpt lat="51.75337" lon="6.43886">
				<ele>16.64</ele>
				<time>2025-07-19T10:41:13.160Z</time>
			</trkpt>
			<trkpt lat="51.7532" lon="6.43898">
				<ele>16.68</ele>
				<time>2025-07-19T10:41:14.549Z</time>
			</trkpt>
			<trkpt lat="51.75147" lon="6.44055">
				<ele>18</ele>
				<time>2025-07-19T10:41:29.358Z</time>
			</trkpt>
			<trkpt lat="51.75128" lon="6.44068">
				<ele>18</ele>
				<time>2025-07-19T10:41:30.894Z</time>
			</trkpt>
			<trkpt lat="51.75103" lon="6.4408">
				<ele>17.73</ele>
				<time>2025-07-19T10:41:32.835Z</time>
			</trkpt>
			<trkpt lat="51.75081" lon="6.44085">
				<ele>16.94</ele>
				<time>2025-07-19T10:41:34.487Z</time>
			</trkpt>
			<trkpt lat="51.75033" lon="6.44086">
				<ele>15.21</ele>
				<time>2025-07-19T10:41:38.057Z</time>
			</trkpt>
			<trkpt lat="51.74972" lon="6.44069">
				<ele>14.99</ele>
				<time>2025-07-19T10:41:42.658Z</time>
			</trkpt>
			<trkpt lat="51.74917" lon="6.44046">
				<ele>15.68</ele>
				<time>2025-07-19T10:41:46.881Z</time>
			</trkpt>
			<trkpt lat="51.74895" lon="6.44041">
				<ele>15.48</ele>
				<time>2025-07-19T10:41:48.532Z</time>
			</trkpt>
			<trkpt lat="51.74863" lon="6.44041">
				<ele>15.95</ele>
				<time>2025-07-19T10:41:50.912Z</time>
			</trkpt>
			<trkpt lat="51.74759" lon="6.44076">
				<ele>15.64</ele>
				<time>2025-07-19T10:41:58.819Z</time>
			</trkpt>
			<trkpt lat="51.74736" lon="6.44078">
				<ele>16.4</ele>
				<time>2025-07-19T10:42:00.536Z</time>
			</trkpt>
			<trkpt lat="51.74683" lon="6.44074">
				<ele>16.6</ele>
				<time>2025-07-19T10:42:04.494Z</time>
			</trkpt>
			<trkpt lat="51.74661" lon="6.44078">
				<ele>15.79</ele>
				<time>2025-07-19T10:42:06.148Z</time>
			</trkpt>
			<trkpt lat="51.7465" lon="6.4408">
				<ele>15.34</ele>
				<time>2025-07-19T10:42:06.975Z</time>
			</trkpt>
			<trkpt lat="51.74622" lon="6.44096">
				<ele>15.14</ele>
				<time>2025-07-19T10:42:09.195Z</time>
			</trkpt>
			<trkpt lat="51.74509" lon="6.44181">
				<ele>17.65</ele>
				<time>2025-07-19T10:42:18.545Z</time>
			</trkpt>
			<trkpt lat="51.74492" lon="6.44189">
				<ele>17.72</ele>
				<time>2025-07-19T10:42:19.877Z</time>
			</trkpt>
			<trkpt lat="51.74459" lon="6.44198">
				<ele>16</ele>
				<time>2025-07-19T10:42:22.398Z</time>
			</trkpt>
			<trkpt lat="51.74424" lon="6.44213">
				<ele>16.22</ele>
				<time>2025-07-19T10:42:25.132Z</time>
			</trkpt>
			<trkpt lat="51.74395" lon="6.44238">
				<ele>18.51</ele>
				<time>2025-07-19T10:42:27.618Z</time>
			</trkpt>
			<trkpt lat="51.74376" lon="6.44262">
				<ele>19</ele>
				<time>2025-07-19T10:42:29.446Z</time>
			</trkpt>
			<trkpt lat="51.74251" lon="6.44471">
				<ele>17</ele>
				<time>2025-07-19T10:42:43.172Z</time>
			</trkpt>
			<trkpt lat="51.74125" lon="6.44669">
				<ele>18</ele>
				<time>2025-07-19T10:42:56.775Z</time>
			</trkpt>
			<trkpt lat="51.74096" lon="6.44719">
				<ele>17.43</ele>
				<time>2025-07-19T10:43:00.091Z</time>
			</trkpt>
			<trkpt lat="51.74063" lon="6.44794">
				<ele>16.69</ele>
				<time>2025-07-19T10:43:04.566Z</time>
			</trkpt>
			<trkpt lat="51.74052" lon="6.44816">
				<ele>17.06</ele>
				<time>2025-07-19T10:43:05.947Z</time>
			</trkpt>
			<trkpt lat="51.73968" lon="6.44956">
				<ele>16</ele>
				<time>2025-07-19T10:43:15.537Z</time>
			</trkpt>
			<trkpt lat="51.73926" lon="6.45024">
				<ele>17.65</ele>
				<time>2025-07-19T10:43:20.311Z</time>
			</trkpt>
			<trkpt lat="51.73887" lon="6.45079">
				<ele>18.04</ele>
				<time>2025-07-19T10:43:24.495Z</time>
			</trkpt>
			<trkpt lat="51.73856" lon="6.45118">
				<ele>20.04</ele>
				<time>2025-07-19T10:43:27.689Z</time>
			</trkpt>
			<trkpt lat="51.73825" lon="6.45151">
				<ele>21.19</ele>
				<time>2025-07-19T10:43:30.721Z</time>
			</trkpt>
			<trkpt lat="51.73796" lon="6.4518">
				<ele>20.66</ele>
				<time>2025-07-19T10:43:33.520Z</time>
			</trkpt>
			<trkpt lat="51.73738" lon="6.45231">
				<ele>21</ele>
				<time>2025-07-19T10:43:38.975Z</time>
			</trkpt>
			<trkpt lat="51.73728" lon="6.45241">
				<ele>21</ele>
				<time>2025-07-19T10:43:39.952Z</time>
			</trkpt>
			<trkpt lat="51.7372" lon="6.45254">
				<ele>21.01</ele>
				<time>2025-07-19T10:43:40.896Z</time>
			</trkpt>
			<trkpt lat="51.73713" lon="6.45276">
				<ele>21.37</ele>
				<time>2025-07-19T10:43:42.172Z</time>
			</trkpt>
			<trkpt lat="51.73706" lon="6.45317">
				<ele>20.25</ele>
				<time>2025-07-19T10:43:44.374Z</time>
			</trkpt>
			<trkpt lat="51.73648" lon="6.45473">
				<ele>19.3</ele>
				<time>2025-07-19T10:43:53.887Z</time>
			</trkpt>
			<trkpt lat="51.73609" lon="6.45593">
				<ele>18.51</ele>
				<time>2025-07-19T10:44:01.078Z</time>
			</trkpt>
			<trkpt lat="51.73519" lon="6.45914">
				<ele>16.62</ele>
				<time>2025-07-19T10:44:20.230Z</time>
			</trkpt>
			<trkpt lat="51.73499" lon="6.45984">
				<ele>18.03</ele>
				<time>2025-07-19T10:44:24.514Z</time>
			</trkpt>
			<trkpt lat="51.7349" lon="6.46002">
				<ele>18.61</ele>
				<time>2025-07-19T10:44:25.806Z</time>
			</trkpt>
			<trkpt lat="51.73485" lon="6.46009">
				<ele>18.85</ele>
				<time>2025-07-19T10:44:26.404Z</time>
			</trkpt>
			<trkpt lat="51.73473" lon="6.4602">
				<ele>19.23</ele>
				<time>2025-07-19T10:44:27.653Z</time>
			</trkpt>
			<trkpt lat="51.73456" lon="6.46025">
				<ele>19.64</ele>
				<time>2025-07-19T10:44:29.222Z</time>
			</trkpt>
			<trkpt lat="51.73363" lon="6.46041">
				<ele>18.51</ele>
				<time>2025-07-19T10:44:37.795Z</time>
			</trkpt>
			<trkpt lat="51.73327" lon="6.46053">
				<ele>18.01</ele>
				<time>2025-07-19T10:44:41.203Z</time>
			</trkpt>
			<trkpt lat="51.73024" lon="6.46214">
				<ele>16.92</ele>
				<time>2025-07-19T10:45:11.782Z</time>
			</trkpt>
			<trkpt lat="51.73027" lon="6.46777">
				<ele>17.54</ele>
				<time>2025-07-19T10:45:47.331Z</time>
			</trkpt>
			<trkpt lat="51.73028" lon="6.46859">
				<ele>18</ele>
				<time>2025-07-19T10:45:52.672Z</time>
			</trkpt>
			<trkpt lat="51.73028" lon="6.4704">
				<ele>18.01</ele>
				<time>2025-07-19T10:46:04.587Z</time>
			</trkpt>
			<trkpt lat="51.73032" lon="6.47321">
				<ele>18.65</ele>
				<time>2025-07-19T10:46:23.430Z</time>
			</trkpt>
			<trkpt lat="51.73037" lon="6.47424">
				<ele>19.45</ele>
				<time>2025-07-19T10:46:30.457Z</time>
			</trkpt>
			<trkpt lat="51.73036" lon="6.47471">
				<ele>19</ele>
				<time>2025-07-19T10:46:33.673Z</time>
			</trkpt>
			<trkpt lat="51.7303" lon="6.4751">
				<ele>19.9</ele>
				<time>2025-07-19T10:46:36.430Z</time>
			</trkpt>
			<trkpt lat="51.73001" lon="6.47637">
				<ele>20</ele>
				<time>2025-07-19T10:46:45.771Z</time>
			</trkpt>
			<trkpt lat="51.72989" lon="6.4767">
				<ele>19</ele>
				<time>2025-07-19T10:46:48.428Z</time>
			</trkpt>
			<trkpt lat="51.72962" lon="6.47732">
				<ele>20.36</ele>
				<time>2025-07-19T10:46:53.710Z</time>
			</trkpt>
			<trkpt lat="51.72958" lon="6.47752">
				<ele>20.44</ele>
				<time>2025-07-19T10:46:55.180Z</time>
			</trkpt>
			<trkpt lat="51.72959" lon="6.47767">
				<ele>20.16</ele>
				<time>2025-07-19T10:46:56.236Z</time>
			</trkpt>
			<trkpt lat="51.72964" lon="6.47783">
				<ele>20</ele>
				<time>2025-07-19T10:46:57.492Z</time>
			</trkpt>
			<trkpt lat="51.7297" lon="6.47792">
				<ele>20</ele>
				<time>2025-07-19T10:46:58.419Z</time>
			</trkpt>
			<trkpt lat="51.73041" lon="6.47838">
				<ele>18.49</ele>
				<time>2025-07-19T10:47:07.121Z</time>
			</trkpt>
			<trkpt lat="51.73199" lon="6.4793">
				<ele>18.59</ele>
				<time>2025-07-19T10:47:26.461Z</time>
			</trkpt>
			<trkpt lat="51.73253" lon="6.47949">
				<ele>18</ele>
				<time>2025-07-19T10:47:32.892Z</time>
			</trkpt>
			<trkpt lat="51.735" lon="6.48013">
				<ele>19.51</ele>
				<time>2025-07-19T10:48:02.400Z</time>
			</trkpt>
			<trkpt lat="51.73508" lon="6.4802">
				<ele>19.48</ele>
				<time>2025-07-19T10:48:03.485Z</time>
			</trkpt>
			<trkpt lat="51.73516" lon="6.48033">
				<ele>19.4</ele>
				<time>2025-07-19T10:48:04.839Z</time>
			</trkpt>
			<trkpt lat="51.7352" lon="6.48043">
				<ele>19.15</ele>
				<time>2025-07-19T10:48:05.720Z</time>
			</trkpt>
			<trkpt lat="51.73523" lon="6.4806">
				<ele>18.84</ele>
				<time>2025-07-19T10:48:07.028Z</time>
			</trkpt>
			<trkpt lat="51.73523" lon="6.48099">
				<ele>19.34</ele>
				<time>2025-07-19T10:48:09.919Z</time>
			</trkpt>
			<trkpt lat="51.73517" lon="6.48186">
				<ele>22.94</ele>
				<time>2025-07-19T10:48:16.428Z</time>
			</trkpt>
			<trkpt lat="51.73489" lon="6.4843">
				<ele>22.92</ele>
				<time>2025-07-19T10:48:35.023Z</time>
			</trkpt>
			<trkpt lat="51.73485" lon="6.48494">
				<ele>22.05</ele>
				<time>2025-07-19T10:48:39.877Z</time>
			</trkpt>
			<trkpt lat="51.73496" lon="6.48906">
				<ele>21.64</ele>
				<time>2025-07-19T10:49:11.302Z</time>
			</trkpt>
			<trkpt lat="51.73504" lon="6.48976">
				<ele>24.11</ele>
				<time>2025-07-19T10:49:16.777Z</time>
			</trkpt>
			<trkpt lat="51.7352" lon="6.49107">
				<ele>24.24</ele>
				<time>2025-07-19T10:49:27.085Z</time>
			</trkpt>
			<trkpt lat="51.73522" lon="6.4914">
				<ele>25.06</ele>
				<time>2025-07-19T10:49:29.652Z</time>
			</trkpt>
			<trkpt lat="51.73522" lon="6.49181">
				<ele>26.41</ele>
				<time>2025-07-19T10:49:32.830Z</time>
			</trkpt>
			<trkpt lat="51.73516" lon="6.49244">
				<ele>27.91</ele>
				<time>2025-07-19T10:49:37.780Z</time>
			</trkpt>
			<trkpt lat="51.73494" lon="6.49378">
				<ele>29.65</ele>
				<time>2025-07-19T10:49:48.581Z</time>
			</trkpt>
			<trkpt lat="51.73478" lon="6.49475">
				<ele>26.27</ele>
				<time>2025-07-19T10:49:56.431Z</time>
			</trkpt>
			<trkpt lat="51.73476" lon="6.49514">
				<ele>24.65</ele>
				<time>2025-07-19T10:49:59.497Z</time>
			</trkpt>
			<trkpt lat="51.73478" lon="6.49553">
				<ele>23.07</ele>
				<time>2025-07-19T10:50:02.567Z</time>
			</trkpt>
			<trkpt lat="51.73489" lon="6.49702">
				<ele>22.72</ele>
				<time>2025-07-19T10:50:14.370Z</time>
			</trkpt>
			<trkpt lat="51.73493" lon="6.49732">
				<ele>22</ele>
				<time>2025-07-19T10:50:16.790Z</time>
			</trkpt>
			<trkpt lat="51.73501" lon="6.49767">
				<ele>22.63</ele>
				<time>2025-07-19T10:50:19.735Z</time>
			</trkpt>
			<trkpt lat="51.73511" lon="6.49794">
				<ele>23</ele>
				<time>2025-07-19T10:50:22.220Z</time>
			</trkpt>
			<trkpt lat="51.73542" lon="6.49853">
				<ele>21.07</ele>
				<time>2025-07-19T10:50:28.340Z</time>
			</trkpt>
			<trkpt lat="51.73605" lon="6.49959">
				<ele>20.36</ele>
				<time>2025-07-19T10:50:39.992Z</time>
			</trkpt>
			<trkpt lat="51.73614" lon="6.49987">
				<ele>21.54</ele>
				<time>2025-07-19T10:50:42.499Z</time>
			</trkpt>
			<trkpt lat="51.73665" lon="6.50165">
				<ele>21.01</ele>
				<time>2025-07-19T10:50:58.124Z</time>
			</trkpt>
			<trkpt lat="51.73696" lon="6.50258">
				<ele>21.23</ele>
				<time>2025-07-19T10:51:06.564Z</time>
			</trkpt>
			<trkpt lat="51.73733" lon="6.50381">
				<ele>21.59</ele>
				<time>2025-07-19T10:51:17.516Z</time>
			</trkpt>
			<trkpt lat="51.73788" lon="6.50553">
				<ele>21.94</ele>
				<time>2025-07-19T10:51:33.061Z</time>
			</trkpt>
			<trkpt lat="51.73814" lon="6.50641">
				<ele>22.36</ele>
				<time>2025-07-19T10:51:40.908Z</time>
			</trkpt>
			<trkpt lat="51.73824" lon="6.50687">
				<ele>23.5</ele>
				<time>2025-07-19T10:51:44.836Z</time>
			</trkpt>
			<trkpt lat="51.73836" lon="6.50777">
				<ele>24.02</ele>
				<time>2025-07-19T10:51:52.259Z</time>
			</trkpt>
			<trkpt lat="51.73877" lon="6.51106">
				<ele>22.75</ele>
				<time>2025-07-19T10:52:19.382Z</time>
			</trkpt>
			<trkpt lat="51.73954" lon="6.51748">
				<ele>22</ele>
				<time>2025-07-19T10:53:12.406Z</time>
			</trkpt>
		</trkseg>
	</trk>
</gpx>